Wetterdaten: Sonntag, 12.03.2023
Datum Zeit Temp. Aussen Temp. o. S. Temp +5cm Feuchte Auss Luftdruck Regen Sonnenschein Regendauer Solar Windben Empfang
12.03.2023 00:00 1,8 C 1,1 C -1,7 C 78 % 1012,8 hPa 0,0 l/m 0 min 0 min 0 W/m 0,0 km/h (0 Bft) 100,00 %
12.03.2023 00:02 1,8 C 1,1 C -1,7 C 78 % 1012,8 hPa 0,0 l/m 0 min 0 min 0 W/m 0,0 km/h (0 Bft) 100,00 %
12.03.2023 00:04 1,8 C 1,1 C -1,7 C 78 % 1012,8 hPa 0,0 l/m 0 min 0 min 0 W/m 0,0 km/h (0 Bft) 97,83 %
12.03.2023 00:07 1,8 C 1,1 C -1,7 C 78 % 1012,8 hPa 0,0 l/m 0 min 0 min 0 W/m 0,0 km/h (0 Bft) 97,37 %
12.03.2023 00:08 1,8 C 1,1 C -1,7 C 78 % 1012,8 hPa 0,0 l/m 0 min 0 min 0 W/m 0,0 km/h (0 Bft) 91,30 %
12.03.2023 00:12 1,8 C 1,1 C -1,7 C 78 % 1012,8 hPa 0,0 l/m 0 min 0 min 0 W/m 0,0 km/h (0 Bft) 100,00 %
12.03.2023 00:14 1,8 C 1,1 C -1,7 C 78 % 1012,8 hPa 0,0 l/m 0 min 0 min 0 W/m 0,0 km/h (0 Bft) 94,44 %
12.03.2023 00:16 1,8 C 1,1 C -1,7 C 78 % 1012,7 hPa 0,0 l/m 0 min 0 min 0 W/m 0,0 km/h (0 Bft) 95,74 %
12.03.2023 00:18 1,8 C 1,1 C -1,7 C 79 % 1012,7 hPa 0,0 l/m 0 min 0 min 0 W/m 0,0 km/h (0 Bft) 97,87 %
12.03.2023 00:20 1,8 C 1,1 C -1,7 C 79 % 1012,7 hPa 0,0 l/m 0 min 0 min 0 W/m 0,0 km/h (0 Bft) 95,74 %
12.03.2023 00:22 1,8 C 1,1 C -1,7 C 79 % 1012,7 hPa 0,0 l/m 0 min 0 min 0 W/m 6,4 km/h (2 Bft) 95,74 %
12.03.2023 00:24 1,8 C 1,1 C -1,7 C 79 % 1012,6 hPa 0,0 l/m 0 min 0 min 0 W/m 6,4 km/h (2 Bft) 95,74 %
12.03.2023 00:26 1,8 C 1,1 C -1,7 C 79 % 1012,6 hPa 0,0 l/m 0 min 0 min 0 W/m 6,4 km/h (2 Bft) 95,74 %
12.03.2023 00:28 1,8 C 1,1 C -1,7 C 79 % 1012,6 hPa 0,0 l/m 0 min 0 min 0 W/m 3,2 km/h (1 Bft) 93,48 %
12.03.2023 00:30 1,8 C 1,1 C -1,7 C 79 % 1012,7 hPa 0,0 l/m 0 min 0 min 0 W/m 3,2 km/h (1 Bft) 95,74 %
12.03.2023 00:32 1,8 C 1,1 C -2,2 C 79 % 1012,6 hPa 0,0 l/m 0 min 0 min 0 W/m 6,4 km/h (2 Bft) 93,62 %
12.03.2023 00:34 1,8 C 1,1 C -2,2 C 79 % 1012,7 hPa 0,0 l/m 0 min 0 min 0 W/m 6,4 km/h (2 Bft) 95,83 %
12.03.2023 00:36 1,8 C 1,1 C -2,2 C 79 % 1012,6 hPa 0,0 l/m 0 min 0 min 0 W/m 6,4 km/h (2 Bft) 95,74 %
12.03.2023 00:38 1,8 C 1,1 C -2,2 C 79 % 1012,6 hPa 0,0 l/m 0 min 0 min 0 W/m 6,4 km/h (2 Bft) 95,74 %
12.03.2023 00:40 1,7 C 1,1 C -2,2 C 79 % 1012,6 hPa 0,0 l/m 0 min 0 min 0 W/m 6,4 km/h (2 Bft) 93,62 %
12.03.2023 00:42 1,7 C 1,1 C -2,2 C 79 % 1012,6 hPa 0,0 l/m 0 min 0 min 0 W/m 6,4 km/h (2 Bft) 95,65 %
12.03.2023 00:44 1,7 C 1,1 C -2,2 C 79 % 1012,7 hPa 0,0 l/m 0 min 0 min 0 W/m 6,4 km/h (2 Bft) 95,74 %
12.03.2023 00:46 1,7 C 1,1 C -2,2 C 79 % 1012,6 hPa 0,0 l/m 0 min 0 min 0 W/m 6,4 km/h (2 Bft) 95,74 %
12.03.2023 00:48 1,7 C 1,1 C -2,2 C 79 % 1012,5 hPa 0,0 l/m 0 min 0 min 0 W/m 6,4 km/h (2 Bft) 100,00 %
12.03.2023 00:50 1,7 C 1,1 C -2,2 C 79 % 1012,6 hPa 0,0 l/m 0 min 0 min 0 W/m 6,4 km/h (2 Bft) 97,87 %
12.03.2023 00:52 1,7 C 1,1 C -2,2 C 79 % 1012,5 hPa 0,0 l/m 0 min 0 min 0 W/m 6,4 km/h (2 Bft) 95,74 %
12.03.2023 00:54 1,7 C 1,1 C -2,2 C 79 % 1012,6 hPa 0,0 l/m 0 min 0 min 0 W/m 6,4 km/h (2 Bft) 97,83 %
12.03.2023 00:56 1,7 C 1,1 C -2,2 C 79 % 1012,6 hPa 0,0 l/m 0 min 0 min 0 W/m 3,2 km/h (1 Bft) 100,00 %
12.03.2023 00:58 1,7 C 1,1 C -2,2 C 79 % 1012,6 hPa 0,0 l/m 0 min 0 min 0 W/m 6,4 km/h (2 Bft) 100,00 %
12.03.2023 01:00 1,7 C 1,1 C -2,2 C 80 % 1012,6 hPa 0,0 l/m 0 min 0 min 0 W/m 12,9 km/h (3 Bft) 100,00 %
12.03.2023 01:02 1,7 C 1,1 C -2,2 C 80 % 1012,6 hPa 0,0 l/m 0 min 0 min 0 W/m 6,4 km/h (2 Bft) 100,00 %
12.03.2023 01:04 1,7 C 1,1 C -1,7 C 80 % 1012,6 hPa 0,0 l/m 0 min 0 min 0 W/m 6,4 km/h (2 Bft) 97,92 %
12.03.2023 01:06 1,7 C 1,1 C -1,7 C 80 % 1012,6 hPa 0,0 l/m 0 min 0 min 0 W/m 6,4 km/h (2 Bft) 98,28 %
12.03.2023 01:08 1,7 C 1,1 C -1,7 C 79 % 1012,6 hPa 0,0 l/m 0 min 0 min 0 W/m 12,9 km/h (3 Bft) 97,22 %
12.03.2023 01:10 1,7 C 1,1 C -1,7 C 79 % 1012,6 hPa 0,0 l/m 0 min 0 min 0 W/m 6,4 km/h (2 Bft) 97,87 %
12.03.2023 01:12 1,7 C 1,1 C -1,7 C 79 % 1012,6 hPa 0,0 l/m 0 min 0 min 0 W/m 6,4 km/h (2 Bft) 95,74 %
12.03.2023 01:14 1,7 C 1,1 C -1,7 C 79 % 1012,5 hPa 0,0 l/m 0 min 0 min 0 W/m 6,4 km/h (2 Bft) 97,87 %
12.03.2023 01:16 1,7 C 1,1 C -1,7 C 79 % 1012,5 hPa 0,0 l/m 0 min 0 min 0 W/m 6,4 km/h (2 Bft) 97,87 %
12.03.2023 01:18 1,7 C 1,1 C -1,7 C 79 % 1012,5 hPa 0,0 l/m 0 min 0 min 0 W/m 6,4 km/h (2 Bft) 97,87 %
12.03.2023 01:20 1,7 C 1,1 C -1,7 C 79 % 1012,5 hPa 0,0 l/m 0 min 0 min 0 W/m 3,2 km/h (1 Bft) 95,74 %
12.03.2023 01:22 1,7 C 1,1 C -1,7 C 80 % 1012,4 hPa 0,0 l/m 0 min 0 min 0 W/m 3,2 km/h (1 Bft) 97,83 %
12.03.2023 01:24 1,7 C 1,1 C -1,7 C 80 % 1012,5 hPa 0,0 l/m 0 min 0 min 0 W/m 6,4 km/h (2 Bft) 97,87 %
12.03.2023 01:26 1,7 C 1,1 C -1,7 C 80 % 1012,5 hPa 0,0 l/m 0 min 0 min 0 W/m 3,2 km/h (1 Bft) 95,83 %
12.03.2023 01:28 1,7 C 1,1 C -1,7 C 80 % 1012,4 hPa 0,0 l/m 0 min 0 min 0 W/m 6,4 km/h (2 Bft) 95,74 %
12.03.2023 01:30 1,7 C 1,1 C -1,7 C 80 % 1012,4 hPa 0,0 l/m 0 min 0 min 0 W/m 6,4 km/h (2 Bft) 95,74 %
12.03.2023 01:32 1,7 C 1,1 C -1,7 C 79 % 1012,4 hPa 0,0 l/m 0 min 0 min 0 W/m 6,4 km/h (2 Bft) 97,87 %
12.03.2023 01:34 1,7 C 1,1 C -1,7 C 79 % 1012,4 hPa 0,0 l/m 0 min 0 min 0 W/m 12,9 km/h (3 Bft) 95,65 %
12.03.2023 01:36 1,7 C 1,1 C -1,7 C 79 % 1012,4 hPa 0,0 l/m 0 min 0 min 0 W/m 16,1 km/h (3 Bft) 97,87 %
12.03.2023 01:38 1,7 C 1,1 C -1,7 C 79 % 1012,4 hPa 0,0 l/m 0 min 0 min 0 W/m 12,9 km/h (3 Bft) 97,87 %
12.03.2023 01:40 1,7 C 1,1 C -1,7 C 79 % 1012,4 hPa 0,0 l/m 0 min 0 min 0 W/m 12,9 km/h (3 Bft) 97,87 %
12.03.2023 01:42 1,7 C 1,1 C -1,7 C 79 % 1012,4 hPa 0,0 l/m 0 min 0 min 0 W/m 12,9 km/h (3 Bft) 97,87 %
12.03.2023 01:44 1,8 C 1,1 C -1,7 C 79 % 1012,4 hPa 0,0 l/m 0 min 0 min 0 W/m 12,9 km/h (3 Bft) 97,96 %
12.03.2023 01:46 1,8 C 1,1 C -1,7 C 79 % 1012,4 hPa 0,0 l/m 0 min 0 min 0 W/m 6,4 km/h (2 Bft) 93,62 %
12.03.2023 01:48 1,8 C 1,1 C -1,7 C 79 % 1012,3 hPa 0,0 l/m 0 min 0 min 0 W/m 6,4 km/h (2 Bft) 100,00 %
12.03.2023 01:50 1,8 C 1,1 C -1,7 C 79 % 1012,3 hPa 0,0 l/m 0 min 0 min 0 W/m 6,4 km/h (2 Bft) 93,62 %
12.03.2023 01:52 1,8 C 1,1 C -1,7 C 79 % 1012,3 hPa 0,0 l/m 0 min 0 min 0 W/m 12,9 km/h (3 Bft) 97,83 %
12.03.2023 01:54 1,8 C 1,1 C -1,7 C 79 % 1012,2 hPa 0,0 l/m 0 min 0 min 0 W/m 12,9 km/h (3 Bft) 97,87 %
12.03.2023 01:56 1,8 C 1,1 C -1,7 C 79 % 1012,1 hPa 0,0 l/m 0 min 0 min 0 W/m 6,4 km/h (2 Bft) 100,00 %
12.03.2023 01:58 1,8 C 1,1 C -1,7 C 79 % 1012,1 hPa 0,0 l/m 0 min 0 min 0 W/m 12,9 km/h (3 Bft) 97,87 %
12.03.2023 02:00 1,8 C 1,1 C -1,7 C 79 % 1012,2 hPa 0,0 l/m 0 min 0 min 0 W/m 6,4 km/h (2 Bft) 100,00 %
12.03.2023 02:02 1,8 C 1,1 C -1,7 C 79 % 1012,1 hPa 0,0 l/m 0 min 0 min 0 W/m 6,4 km/h (2 Bft) 100,00 %
12.03.2023 02:04 1,8 C 1,1 C -1,7 C 79 % 1012,1 hPa 0,0 l/m 0 min 0 min 0 W/m 12,9 km/h (3 Bft) 96,23 %
12.03.2023 02:06 1,8 C 1,1 C -1,7 C 79 % 1012,1 hPa 0,0 l/m 0 min 0 min 0 W/m 12,9 km/h (3 Bft) 95,74 %
12.03.2023 02:08 1,8 C 1,1 C -1,7 C 79 % 1012,1 hPa 0,0 l/m 0 min 0 min 0 W/m 12,9 km/h (3 Bft) 97,87 %
12.03.2023 02:10 1,8 C 1,1 C -1,7 C 79 % 1012,1 hPa 0,0 l/m 0 min 0 min 0 W/m 12,9 km/h (3 Bft) 97,87 %
12.03.2023 02:12 1,8 C 1,1 C -2,2 C 79 % 1012,1 hPa 0,0 l/m 0 min 0 min 0 W/m 6,4 km/h (2 Bft) 97,87 %
12.03.2023 02:14 1,8 C 1,1 C -2,2 C 80 % 1012,0 hPa 0,0 l/m 0 min 0 min 0 W/m 12,9 km/h (3 Bft) 93,62 %
12.03.2023 02:16 1,8 C 1,1 C -2,2 C 80 % 1012,0 hPa 0,0 l/m 0 min 0 min 0 W/m 6,4 km/h (2 Bft) 95,74 %
12.03.2023 02:18 1,7 C 1,1 C -2,2 C 80 % 1011,9 hPa 0,0 l/m 0 min 0 min 0 W/m 12,9 km/h (3 Bft) 95,74 %
12.03.2023 02:20 1,7 C 1,1 C -2,2 C 80 % 1011,9 hPa 0,0 l/m 0 min 0 min 0 W/m 6,4 km/h (2 Bft) 95,74 %
12.03.2023 02:22 1,7 C 1,1 C -2,2 C 80 % 1011,9 hPa 0,0 l/m 0 min 0 min 0 W/m 12,9 km/h (3 Bft) 95,74 %
12.03.2023 02:24 1,7 C 1,1 C -2,2 C 80 % 1011,8 hPa 0,0 l/m 0 min 0 min 0 W/m 9,7 km/h (2 Bft) 93,62 %
12.03.2023 02:26 1,7 C 1,1 C -2,2 C 80 % 1011,9 hPa 0,0 l/m 0 min 0 min 0 W/m 16,1 km/h (3 Bft) 93,75 %
12.03.2023 02:28 1,7 C 1,1 C -2,2 C 80 % 1011,9 hPa 0,0 l/m 0 min 0 min 0 W/m 12,9 km/h (3 Bft) 93,48 %
12.03.2023 02:30 1,7 C 1,1 C -2,2 C 80 % 1011,8 hPa 0,0 l/m 0 min 0 min 0 W/m 12,9 km/h (3 Bft) 93,62 %
12.03.2023 02:32 1,7 C 1,1 C -2,2 C 80 % 1011,7 hPa 0,0 l/m 0 min 0 min 0 W/m 12,9 km/h (3 Bft) 95,74 %
12.03.2023 02:34 1,7 C 1,1 C -2,2 C 80 % 1011,7 hPa 0,0 l/m 0 min 0 min 0 W/m 16,1 km/h (3 Bft) 95,74 %
12.03.2023 02:36 1,7 C 1,1 C -2,2 C 80 % 1011,7 hPa 0,0 l/m 0 min 0 min 0 W/m 12,9 km/h (3 Bft) 95,74 %
12.03.2023 02:38 1,7 C 1,1 C -2,2 C 80 % 1011,6 hPa 0,0 l/m 0 min 0 min 0 W/m 12,9 km/h (3 Bft) 97,87 %
12.03.2023 02:40 1,7 C 1,1 C -2,2 C 80 % 1011,6 hPa 0,0 l/m 0 min 0 min 0 W/m 9,7 km/h (2 Bft) 97,87 %
12.03.2023 02:42 1,7 C 1,1 C -2,2 C 80 % 1011,6 hPa 0,0 l/m 0 min 0 min 0 W/m 6,4 km/h (2 Bft) 97,83 %
12.03.2023 02:44 1,7 C 1,1 C -2,2 C 81 % 1011,6 hPa 0,0 l/m 0 min 0 min 0 W/m 6,4 km/h (2 Bft) 97,87 %
12.03.2023 02:46 1,7 C 1,1 C -2,2 C 81 % 1011,6 hPa 0,0 l/m 0 min 0 min 0 W/m 9,7 km/h (2 Bft) 97,87 %
12.03.2023 02:48 1,7 C 1,1 C -2,2 C 81 % 1011,6 hPa 0,0 l/m 0 min 0 min 0 W/m 6,4 km/h (2 Bft) 97,87 %
12.03.2023 02:50 1,6 C 1,1 C -2,2 C 81 % 1011,6 hPa 0,0 l/m 0 min 0 min 0 W/m 6,4 km/h (2 Bft) 97,87 %
12.03.2023 02:52 1,6 C 1,1 C -2,2 C 81 % 1011,6 hPa 0,0 l/m 0 min 0 min 0 W/m 6,4 km/h (2 Bft) 100,00 %
12.03.2023 02:54 1,6 C 1,1 C -2,2 C 81 % 1011,7 hPa 0,0 l/m 0 min 0 min 0 W/m 12,9 km/h (3 Bft) 97,83 %
12.03.2023 02:56 1,6 C 1,1 C -2,2 C 81 % 1011,8 hPa 0,0 l/m 0 min 0 min 0 W/m 12,9 km/h (3 Bft) 100,00 %
12.03.2023 02:58 1,6 C 1,1 C -2,2 C 81 % 1011,6 hPa 0,0 l/m 0 min 0 min 0 W/m 9,7 km/h (2 Bft) 100,00 %
12.03.2023 03:00 1,6 C 1,1 C -2,2 C 81 % 1011,7 hPa 0,0 l/m 0 min 0 min 0 W/m 12,9 km/h (3 Bft) 97,87 %
12.03.2023 03:02 1,6 C 1,1 C -2,2 C 82 % 1011,6 hPa 0,0 l/m 0 min 0 min 0 W/m 6,4 km/h (2 Bft) 100,00 %
12.03.2023 03:04 1,6 C 1,1 C -2,2 C 82 % 1011,5 hPa 0,0 l/m 0 min 0 min 0 W/m 12,9 km/h (3 Bft) 100,00 %
12.03.2023 03:06 1,6 C 1,1 C -2,2 C 82 % 1011,4 hPa 0,0 l/m 0 min 0 min 0 W/m 16,1 km/h (3 Bft) 100,00 %
12.03.2023 03:08 1,6 C 1,1 C -2,2 C 82 % 1011,4 hPa 0,0 l/m 0 min 0 min 0 W/m 12,9 km/h (3 Bft) 100,00 %
12.03.2023 03:10 1,6 C 1,1 C -2,2 C 82 % 1011,3 hPa 0,0 l/m 0 min 0 min 0 W/m 9,7 km/h (2 Bft) 100,00 %
12.03.2023 03:12 1,6 C 1,1 C -2,2 C 82 % 1011,4 hPa 0,0 l/m 0 min 0 min 0 W/m 6,4 km/h (2 Bft) 100,00 %
12.03.2023 03:14 1,6 C 1,1 C -2,2 C 82 % 1011,4 hPa 0,0 l/m 0 min 0 min 0 W/m 12,9 km/h (3 Bft) 100,00 %
12.03.2023 03:16 1,6 C 1,1 C -2,2 C 82 % 1011,4 hPa 0,0 l/m 0 min 0 min 0 W/m 6,4 km/h (2 Bft) 100,00 %
12.03.2023 03:18 1,6 C 1,1 C -2,2 C 82 % 1011,4 hPa 0,0 l/m 0 min 0 min 0 W/m 12,9 km/h (3 Bft) 100,00 %
12.03.2023 03:20 1,6 C 1,1 C -2,2 C 82 % 1011,3 hPa 0,0 l/m 0 min 0 min 0 W/m 12,9 km/h (3 Bft) 100,00 %
12.03.2023 03:22 1,6 C 1,1 C -2,2 C 82 % 1011,4 hPa 0,0 l/m 0 min 0 min 0 W/m 9,7 km/h (2 Bft) 100,00 %
12.03.2023 03:24 1,6 C 1,1 C -2,2 C 82 % 1011,4 hPa 0,0 l/m 0 min 0 min 0 W/m 9,7 km/h (2 Bft) 100,00 %
12.03.2023 03:26 1,6 C 1,1 C -2,2 C 83 % 1011,4 hPa 0,0 l/m 0 min 0 min 0 W/m 6,4 km/h (2 Bft) 100,00 %
12.03.2023 03:28 1,6 C 1,1 C -2,2 C 83 % 1011,4 hPa 0,0 l/m 0 min 0 min 0 W/m 12,9 km/h (3 Bft) 97,87 %
12.03.2023 03:30 1,6 C 1,1 C -2,2 C 83 % 1011,3 hPa 0,0 l/m 0 min 0 min 0 W/m 6,4 km/h (2 Bft) 100,00 %
12.03.2023 03:32 1,6 C 1,1 C -2,2 C 83 % 1011,3 hPa 0,0 l/m 0 min 0 min 0 W/m 6,4 km/h (2 Bft) 100,00 %
12.03.2023 03:34 1,6 C 1,1 C -2,2 C 83 % 1011,3 hPa 0,0 l/m 0 min 0 min 0 W/m 12,9 km/h (3 Bft) 100,00 %
12.03.2023 03:36 1,6 C 1,1 C -2,2 C 82 % 1011,3 hPa 0,0 l/m 0 min 0 min 0 W/m 12,9 km/h (3 Bft) 100,00 %
12.03.2023 03:38 1,6 C 1,1 C -2,2 C 82 % 1011,3 hPa 0,0 l/m 0 min 0 min 0 W/m 6,4 km/h (2 Bft) 100,00 %
12.03.2023 03:40 1,6 C 1,1 C -2,2 C 82 % 1011,3 hPa 0,0 l/m 0 min 0 min 0 W/m 16,1 km/h (3 Bft) 100,00 %
12.03.2023 03:42 1,6 C 1,1 C -2,2 C 82 % 1011,3 hPa 0,0 l/m 0 min 0 min 0 W/m 9,7 km/h (2 Bft) 100,00 %
12.03.2023 03:44 1,6 C 1,1 C -2,2 C 82 % 1011,2 hPa 0,0 l/m 0 min 0 min 0 W/m 6,4 km/h (2 Bft) 100,00 %
12.03.2023 03:46 1,6 C 1,1 C -2,2 C 82 % 1011,2 hPa 0,0 l/m 0 min 0 min 0 W/m 12,9 km/h (3 Bft) 100,00 %
12.03.2023 03:48 1,6 C 1,1 C -2,2 C 82 % 1011,1 hPa 0,0 l/m 0 min 0 min 0 W/m 12,9 km/h (3 Bft) 97,87 %
12.03.2023 03:50 1,6 C 1,1 C -2,2 C 83 % 1011,0 hPa 0,0 l/m 0 min 0 min 0 W/m 6,4 km/h (2 Bft) 100,00 %
12.03.2023 03:52 1,6 C 1,1 C -2,2 C 82 % 1011,0 hPa 0,0 l/m 0 min 0 min 0 W/m 12,9 km/h (3 Bft) 100,00 %
12.03.2023 03:54 1,6 C 1,1 C -2,2 C 82 % 1010,9 hPa 0,0 l/m 0 min 0 min 0 W/m 16,1 km/h (3 Bft) 100,00 %
12.03.2023 03:56 1,6 C 1,1 C -2,2 C 82 % 1010,9 hPa 0,0 l/m 0 min 0 min 0 W/m 12,9 km/h (3 Bft) 97,87 %
12.03.2023 03:58 1,6 C 1,1 C -2,2 C 82 % 1010,9 hPa 0,0 l/m 0 min 0 min 0 W/m 16,1 km/h (3 Bft) 97,92 %
12.03.2023 04:00 1,6 C 1,1 C -2,2 C 82 % 1010,9 hPa 0,0 l/m 0 min 0 min 0 W/m 6,4 km/h (2 Bft) 97,87 %
12.03.2023 04:05 1,6 C 1,1 C -2,2 C 82 % 1011,0 hPa 0,0 l/m 0 min 0 min 0 W/m 12,9 km/h (3 Bft) 100,00 %
12.03.2023 04:06 1,6 C 1,1 C -2,2 C 82 % 1011,0 hPa 0,0 l/m 0 min 0 min 0 W/m 12,9 km/h (3 Bft) 90,48 %
12.03.2023 04:08 1,6 C 1,1 C -2,2 C 82 % 1010,9 hPa 0,0 l/m 0 min 0 min 0 W/m 6,4 km/h (2 Bft) 31,82 %
12.03.2023 04:10 1,7 C 1,1 C -2,2 C 82 % 1010,9 hPa 0,0 l/m 0 min 0 min 0 W/m 12,9 km/h (3 Bft) 78,38 %
12.03.2023 04:12 1,7 C 1,1 C -2,2 C 82 % 1010,9 hPa 0,0 l/m 0 min 0 min 0 W/m 12,9 km/h (3 Bft) 91,49 %
12.03.2023 04:14 1,7 C 1,1 C -1,7 C 82 % 1010,8 hPa 0,0 l/m 0 min 0 min 0 W/m 12,9 km/h (3 Bft) 95,74 %
12.03.2023 04:16 1,7 C 1,1 C -2,2 C 82 % 1010,8 hPa 0,0 l/m 0 min 0 min 0 W/m 6,4 km/h (2 Bft) 95,65 %
12.03.2023 04:18 1,7 C 1,1 C -2,2 C 82 % 1010,9 hPa 0,0 l/m 0 min 0 min 0 W/m 9,7 km/h (2 Bft) 95,74 %
12.03.2023 04:20 1,7 C 1,1 C -2,2 C 82 % 1010,9 hPa 0,0 l/m 0 min 0 min 0 W/m 9,7 km/h (2 Bft) 91,49 %
12.03.2023 04:22 1,7 C 1,1 C -2,2 C 82 % 1010,9 hPa 0,0 l/m 0 min 0 min 0 W/m 16,1 km/h (3 Bft) 95,74 %
12.03.2023 04:24 1,7 C 1,1 C -1,7 C 82 % 1011,0 hPa 0,0 l/m 0 min 0 min 0 W/m 12,9 km/h (3 Bft) 95,74 %
12.03.2023 04:26 1,7 C 1,1 C -1,7 C 81 % 1010,9 hPa 0,0 l/m 0 min 0 min 0 W/m 19,3 km/h (3 Bft) 97,87 %
12.03.2023 04:28 1,7 C 1,1 C -1,7 C 81 % 1010,9 hPa 0,0 l/m 0 min 0 min 0 W/m 12,9 km/h (3 Bft) 95,74 %
12.03.2023 04:30 1,8 C 1,1 C -1,7 C 81 % 1010,9 hPa 0,0 l/m 0 min 0 min 0 W/m 6,4 km/h (2 Bft) 95,65 %
12.03.2023 04:32 1,8 C 1,1 C -1,7 C 81 % 1010,9 hPa 0,0 l/m 0 min 0 min 0 W/m 12,9 km/h (3 Bft) 95,74 %
12.03.2023 04:34 1,8 C 1,1 C -1,7 C 81 % 1010,9 hPa 0,0 l/m 0 min 0 min 0 W/m 6,4 km/h (2 Bft) 95,74 %
12.03.2023 04:36 1,8 C 1,1 C -1,7 C 81 % 1010,9 hPa 0,0 l/m 0 min 0 min 0 W/m 16,1 km/h (3 Bft) 93,62 %
12.03.2023 04:38 1,8 C 1,1 C -1,7 C 81 % 1010,9 hPa 0,0 l/m 0 min 0 min 0 W/m 12,9 km/h (3 Bft) 95,74 %
12.03.2023 04:40 1,8 C 1,1 C -1,7 C 81 % 1010,9 hPa 0,0 l/m 0 min 0 min 0 W/m 12,9 km/h (3 Bft) 93,62 %
12.03.2023 04:42 1,8 C 1,1 C -1,7 C 81 % 1010,9 hPa 0,0 l/m 0 min 0 min 0 W/m 12,9 km/h (3 Bft) 95,65 %
12.03.2023 04:44 1,8 C 1,1 C -1,7 C 81 % 1010,9 hPa 0,0 l/m 0 min 0 min 0 W/m 9,7 km/h (2 Bft) 97,87 %
12.03.2023 04:46 1,8 C 1,1 C -1,7 C 81 % 1010,9 hPa 0,0 l/m 0 min 0 min 0 W/m 12,9 km/h (3 Bft) 95,74 %
12.03.2023 04:48 1,8 C 1,1 C -1,7 C 81 % 1010,9 hPa 0,0 l/m 0 min 0 min 0 W/m 12,9 km/h (3 Bft) 95,74 %
12.03.2023 04:50 1,8 C 1,1 C -1,7 C 81 % 1010,9 hPa 0,0 l/m 0 min 0 min 0 W/m 12,9 km/h (3 Bft) 95,74 %
12.03.2023 04:52 1,8 C 1,1 C -1,7 C 81 % 1010,9 hPa 0,0 l/m 0 min 0 min 0 W/m 9,7 km/h (2 Bft) 95,74 %
12.03.2023 04:54 1,8 C 1,1 C -1,7 C 81 % 1010,9 hPa 0,0 l/m 0 min 0 min 0 W/m 16,1 km/h (3 Bft) 95,74 %
12.03.2023 04:56 1,8 C 1,1 C -1,7 C 81 % 1010,9 hPa 0,0 l/m 0 min 0 min 0 W/m 12,9 km/h (3 Bft) 93,48 %
12.03.2023 04:58 1,8 C 1,1 C -1,7 C 81 % 1010,9 hPa 0,0 l/m 0 min 0 min 0 W/m 9,7 km/h (2 Bft) 93,62 %
12.03.2023 05:00 1,8 C 1,1 C -1,7 C 81 % 1010,8 hPa 0,0 l/m 0 min 0 min 0 W/m 9,7 km/h (2 Bft) 95,74 %
12.03.2023 05:02 1,9 C 1,1 C -1,7 C 81 % 1010,8 hPa 0,0 l/m 0 min 0 min 0 W/m 12,9 km/h (3 Bft) 95,83 %
12.03.2023 05:04 1,9 C 1,1 C -1,7 C 81 % 1010,8 hPa 0,0 l/m 0 min 0 min 0 W/m 19,3 km/h (3 Bft) 95,74 %
12.03.2023 05:06 1,9 C 1,7 C -1,7 C 81 % 1010,7 hPa 0,0 l/m 0 min 0 min 0 W/m 16,1 km/h (3 Bft) 97,87 %
12.03.2023 05:08 1,9 C 1,7 C -1,7 C 81 % 1010,7 hPa 0,0 l/m 0 min 0 min 0 W/m 16,1 km/h (3 Bft) 100,00 %
12.03.2023 05:10 1,9 C 1,7 C -1,7 C 81 % 1010,8 hPa 0,0 l/m 0 min 0 min 0 W/m 6,4 km/h (2 Bft) 100,00 %
12.03.2023 05:12 1,9 C 1,7 C -1,7 C 81 % 1010,8 hPa 0,0 l/m 0 min 0 min 0 W/m 12,9 km/h (3 Bft) 95,74 %
12.03.2023 05:14 1,9 C 1,7 C -1,7 C 81 % 1010,9 hPa 0,0 l/m 0 min 0 min 0 W/m 16,1 km/h (3 Bft) 100,00 %
12.03.2023 05:16 1,9 C 1,7 C -1,7 C 81 % 1010,8 hPa 0,0 l/m 0 min 0 min 0 W/m 12,9 km/h (3 Bft) 100,00 %
12.03.2023 05:18 1,9 C 1,7 C -1,7 C 81 % 1010,8 hPa 0,0 l/m 0 min 0 min 0 W/m 12,9 km/h (3 Bft) 100,00 %
12.03.2023 05:20 1,9 C 1,7 C -1,7 C 81 % 1010,8 hPa 0,0 l/m 0 min 0 min 0 W/m 6,4 km/h (2 Bft) 100,00 %
12.03.2023 05:22 1,9 C 1,7 C -1,7 C 81 % 1010,8 hPa 0,0 l/m 0 min 0 min 0 W/m 16,1 km/h (3 Bft) 100,00 %
12.03.2023 05:24 1,9 C 1,7 C -1,7 C 81 % 1010,8 hPa 0,0 l/m 0 min 0 min 0 W/m 12,9 km/h (3 Bft) 100,00 %
12.03.2023 05:26 1,9 C 1,7 C -1,7 C 81 % 1010,8 hPa 0,0 l/m 0 min 0 min 0 W/m 6,4 km/h (2 Bft) 97,87 %
12.03.2023 05:28 1,9 C 1,7 C -1,7 C 81 % 1010,8 hPa 0,0 l/m 0 min 0 min 0 W/m 9,7 km/h (2 Bft) 100,00 %
12.03.2023 05:30 2,0 C 1,7 C -1,7 C 81 % 1010,7 hPa 0,0 l/m 0 min 0 min 0 W/m 12,9 km/h (3 Bft) 100,00 %
12.03.2023 05:32 2,0 C 1,7 C -1,7 C 81 % 1010,7 hPa 0,0 l/m 0 min 0 min 0 W/m 6,4 km/h (2 Bft) 97,87 %
12.03.2023 05:34 2,0 C 1,7 C -1,7 C 81 % 1010,7 hPa 0,0 l/m 0 min 0 min 0 W/m 12,9 km/h (3 Bft) 100,00 %
12.03.2023 05:36 2,0 C 1,7 C -1,7 C 81 % 1010,7 hPa 0,0 l/m 0 min 0 min 0 W/m 9,7 km/h (2 Bft) 100,00 %
12.03.2023 05:38 2,0 C 1,7 C -1,7 C 81 % 1010,7 hPa 0,0 l/m 0 min 0 min 0 W/m 9,7 km/h (2 Bft) 100,00 %
12.03.2023 05:40 2,0 C 1,7 C -1,7 C 81 % 1010,7 hPa 0,0 l/m 0 min 0 min 0 W/m 12,9 km/h (3 Bft) 97,87 %
12.03.2023 05:42 2,0 C 1,7 C -1,7 C 81 % 1010,7 hPa 0,0 l/m 0 min 0 min 0 W/m 3,2 km/h (1 Bft) 100,00 %
12.03.2023 05:44 2,0 C 1,1 C -1,7 C 81 % 1010,7 hPa 0,0 l/m 0 min 0 min 0 W/m 6,4 km/h (2 Bft) 100,00 %
12.03.2023 05:46 2,0 C 1,1 C -2,2 C 81 % 1010,7 hPa 0,0 l/m 0 min 0 min 0 W/m 12,9 km/h (3 Bft) 97,87 %
12.03.2023 05:48 2,0 C 1,1 C -2,2 C 81 % 1010,6 hPa 0,0 l/m 0 min 0 min 0 W/m 12,9 km/h (3 Bft) 97,87 %
12.03.2023 05:50 2,0 C 1,1 C -2,2 C 82 % 1010,6 hPa 0,0 l/m 0 min 0 min 0 W/m 12,9 km/h (3 Bft) 95,74 %
12.03.2023 05:52 2,0 C 1,1 C -2,2 C 82 % 1010,5 hPa 0,0 l/m 0 min 0 min 0 W/m 9,7 km/h (2 Bft) 97,83 %
12.03.2023 05:54 2,0 C 1,1 C -2,2 C 82 % 1010,5 hPa 0,0 l/m 0 min 0 min 0 W/m 6,4 km/h (2 Bft) 97,87 %
12.03.2023 05:56 2,0 C 1,1 C -2,2 C 82 % 1010,5 hPa 0,0 l/m 0 min 0 min 0 W/m 12,9 km/h (3 Bft) 97,87 %
12.03.2023 05:58 1,9 C 1,1 C -2,2 C 83 % 1010,3 hPa 0,0 l/m 0 min 0 min 0 W/m 6,4 km/h (2 Bft) 95,74 %
12.03.2023 06:00 1,9 C 1,1 C -2,2 C 83 % 1010,3 hPa 0,0 l/m 0 min 0 min 0 W/m 6,4 km/h (2 Bft) 97,87 %
12.03.2023 06:02 1,9 C 1,1 C -2,2 C 83 % 1010,3 hPa 0,0 l/m 0 min 0 min 0 W/m 6,4 km/h (2 Bft) 89,36 %
12.03.2023 06:04 1,9 C 1,1 C -2,2 C 83 % 1010,3 hPa 0,0 l/m 0 min 0 min 0 W/m 6,4 km/h (2 Bft) 97,96 %
12.03.2023 06:07 1,9 C 1,1 C -2,2 C 84 % 1010,1 hPa 0,0 l/m 0 min 0 min 0 W/m 9,7 km/h (2 Bft) 97,18 %
12.03.2023 06:08 1,9 C 1,1 C -2,2 C 84 % 1010,1 hPa 0,0 l/m 0 min 0 min 0 W/m 12,9 km/h (3 Bft) 100,00 %
12.03.2023 06:12 1,8 C 1,1 C -2,2 C 84 % 1010,0 hPa 0,0 l/m 0 min 0 min 0 W/m 12,9 km/h (3 Bft) 98,18 %
12.03.2023 06:14 1,8 C 1,1 C -2,2 C 85 % 1009,8 hPa 0,0 l/m 0 min 0 min 0 W/m 16,1 km/h (3 Bft) 97,87 %
12.03.2023 06:16 1,8 C 1,1 C -2,2 C 85 % 1009,8 hPa 0,0 l/m 0 min 0 min 0 W/m 12,9 km/h (3 Bft) 97,83 %
12.03.2023 06:18 1,8 C 1,1 C -2,2 C 85 % 1009,8 hPa 0,0 l/m 0 min 0 min 0 W/m 16,1 km/h (3 Bft) 95,74 %
12.03.2023 06:20 1,8 C 1,1 C -2,2 C 85 % 1009,9 hPa 0,0 l/m 0 min 0 min 0 W/m 12,9 km/h (3 Bft) 100,00 %
12.03.2023 06:22 1,8 C 1,1 C -2,2 C 85 % 1010,0 hPa 0,0 l/m 0 min 0 min 0 W/m 16,1 km/h (3 Bft) 95,74 %
12.03.2023 06:24 1,8 C 1,1 C -2,2 C 85 % 1010,0 hPa 0,0 l/m 0 min 0 min 0 W/m 12,9 km/h (3 Bft) 100,00 %
12.03.2023 06:26 1,8 C 1,1 C -2,2 C 85 % 1010,0 hPa 0,0 l/m 0 min 0 min 0 W/m 12,9 km/h (3 Bft) 100,00 %
12.03.2023 06:28 1,8 C 1,1 C -2,2 C 86 % 1010,0 hPa 0,0 l/m 0 min 0 min 0 W/m 16,1 km/h (3 Bft) 100,00 %
12.03.2023 06:30 1,8 C 1,1 C -2,2 C 86 % 1009,9 hPa 0,0 l/m 0 min 0 min 0 W/m 12,9 km/h (3 Bft) 97,83 %
12.03.2023 06:32 1,7 C 1,1 C -1,7 C 86 % 1009,9 hPa 0,0 l/m 0 min 0 min 0 W/m 12,9 km/h (3 Bft) 100,00 %
12.03.2023 06:34 1,8 C 1,1 C -1,7 C 86 % 1009,9 hPa 0,0 l/m 0 min 0 min 0 W/m 16,1 km/h (3 Bft) 97,87 %
12.03.2023 06:36 1,8 C 1,1 C -1,7 C 86 % 1009,8 hPa 0,0 l/m 0 min 0 min 0 W/m 12,9 km/h (3 Bft) 100,00 %
12.03.2023 06:38 1,8 C 1,1 C -1,7 C 86 % 1009,8 hPa 0,0 l/m 0 min 0 min 0 W/m 6,4 km/h (2 Bft) 100,00 %
12.03.2023 06:40 1,8 C 1,1 C -1,7 C 86 % 1009,7 hPa 0,0 l/m 0 min 0 min 0 W/m 16,1 km/h (3 Bft) 97,87 %
12.03.2023 06:42 1,8 C 1,7 C -1,7 C 86 % 1009,7 hPa 0,0 l/m 0 min 0 min 0 W/m 12,9 km/h (3 Bft) 100,00 %
12.03.2023 06:44 1,8 C 1,7 C -1,7 C 86 % 1009,7 hPa 0,0 l/m 0 min 0 min 0 W/m 12,9 km/h (3 Bft) 100,00 %
12.03.2023 06:46 1,9 C 1,7 C -1,7 C 86 % 1009,5 hPa 0,0 l/m 0 min 0 min 0 W/m 19,3 km/h (3 Bft) 97,87 %
12.03.2023 06:48 1,9 C 1,7 C -1,7 C 86 % 1009,5 hPa 0,0 l/m 0 min 0 min 0 W/m 19,3 km/h (3 Bft) 97,87 %
12.03.2023 06:50 1,9 C 1,7 C -1,7 C 86 % 1009,5 hPa 0,0 l/m 0 min 0 min 0 W/m 19,3 km/h (3 Bft) 97,87 %
12.03.2023 06:52 1,9 C 1,7 C -1,7 C 86 % 1009,5 hPa 0,0 l/m 0 min 0 min 0 W/m 19,3 km/h (3 Bft) 97,87 %
12.03.2023 06:54 1,9 C 1,7 C -1,7 C 86 % 1009,4 hPa 0,0 l/m 0 min 0 min 0 W/m 19,3 km/h (3 Bft) 97,87 %
12.03.2023 06:56 2,0 C 1,7 C -1,7 C 86 % 1009,4 hPa 0,0 l/m 0 min 0 min 0 W/m 16,1 km/h (3 Bft) 95,65 %
12.03.2023 06:58 2,0 C 1,7 C -1,7 C 86 % 1009,3 hPa 0,0 l/m 0 min 0 min 0 W/m 16,1 km/h (3 Bft) 97,87 %
12.03.2023 07:00 2,0 C 1,7 C -1,7 C 87 % 1009,3 hPa 0,0 l/m 0 min 0 min 0 W/m 16,1 km/h (3 Bft) 97,87 %
12.03.2023 07:02 2,1 C 1,7 C -1,7 C 87 % 1009,3 hPa 0,0 l/m 0 min 0 min 0 W/m 16,1 km/h (3 Bft) 95,74 %
12.03.2023 07:04 2,1 C 1,7 C -1,7 C 87 % 1009,3 hPa 0,0 l/m 0 min 0 min 0 W/m 16,1 km/h (3 Bft) 97,87 %
12.03.2023 07:06 2,1 C 1,7 C -1,7 C 87 % 1009,3 hPa 0,0 l/m 0 min 0 min 0 W/m 16,1 km/h (3 Bft) 98,28 %
12.03.2023 07:08 2,1 C 1,7 C -1,7 C 87 % 1009,4 hPa 0,0 l/m 0 min 0 min 0 W/m 16,1 km/h (3 Bft) 100,00 %
12.03.2023 07:10 2,1 C 1,1 C -1,7 C 87 % 1009,4 hPa 0,0 l/m 0 min 0 min 0 W/m 19,3 km/h (3 Bft) 97,87 %
12.03.2023 07:12 2,1 C 1,1 C -1,7 C 88 % 1009,3 hPa 0,0 l/m 0 min 0 min 0 W/m 16,1 km/h (3 Bft) 97,87 %
12.03.2023 07:14 2,1 C 1,1 C -1,7 C 88 % 1009,3 hPa 0,0 l/m 0 min 0 min 0 W/m 22,5 km/h (4 Bft) 97,87 %
12.03.2023 07:16 2,1 C 1,1 C -1,7 C 88 % 1009,3 hPa 0,0 l/m 0 min 0 min 2 W/m 19,3 km/h (3 Bft) 97,87 %
12.03.2023 07:18 2,1 C 1,1 C -1,7 C 88 % 1009,3 hPa 0,0 l/m 0 min 0 min 5 W/m 19,3 km/h (3 Bft) 91,49 %
12.03.2023 07:20 2,1 C 1,1 C -1,7 C 88 % 1009,3 hPa 0,0 l/m 0 min 0 min 5 W/m 22,5 km/h (4 Bft) 95,74 %
12.03.2023 07:22 2,1 C 1,1 C -1,7 C 89 % 1009,2 hPa 0,0 l/m 0 min 0 min 5 W/m 16,1 km/h (3 Bft) 95,65 %
12.03.2023 07:24 2,1 C 1,1 C -1,7 C 89 % 1009,2 hPa 0,0 l/m 0 min 0 min 7 W/m 16,1 km/h (3 Bft) 97,87 %
12.03.2023 07:26 2,1 C 1,1 C -1,7 C 89 % 1009,3 hPa 0,0 l/m 0 min 0 min 7 W/m 16,1 km/h (3 Bft) 97,87 %
12.03.2023 07:28 2,1 C 1,1 C -1,7 C 89 % 1009,2 hPa 0,0 l/m 0 min 0 min 7 W/m 19,3 km/h (3 Bft) 97,87 %
12.03.2023 07:30 2,1 C 1,1 C -1,7 C 89 % 1009,3 hPa 0,0 l/m 0 min 0 min 10 W/m 16,1 km/h (3 Bft) 97,87 %
12.03.2023 07:32 2,1 C 1,1 C -1,7 C 90 % 1009,4 hPa 0,0 l/m 0 min 0 min 12 W/m 19,3 km/h (3 Bft) 97,87 %
12.03.2023 07:34 2,1 C 1,1 C -1,7 C 90 % 1009,4 hPa 0,0 l/m 0 min 0 min 12 W/m 19,3 km/h (3 Bft) 97,83 %
12.03.2023 07:36 2,1 C 1,1 C -1,7 C 90 % 1009,4 hPa 0,0 l/m 0 min 0 min 12 W/m 16,1 km/h (3 Bft) 95,74 %
12.03.2023 07:38 2,1 C 1,1 C -1,7 C 90 % 1009,4 hPa 0,0 l/m 0 min 0 min 12 W/m 22,5 km/h (4 Bft) 95,74 %
12.03.2023 07:40 2,0 C 1,1 C -1,7 C 90 % 1009,5 hPa 0,0 l/m 0 min 0 min 12 W/m 16,1 km/h (3 Bft) 95,74 %
12.03.2023 07:42 2,0 C 1,1 C -1,7 C 91 % 1009,4 hPa 0,0 l/m 0 min 0 min 12 W/m 16,1 km/h (3 Bft) 95,74 %
12.03.2023 07:44 2,0 C 1,1 C -1,7 C 91 % 1009,5 hPa 0,0 l/m 0 min 0 min 12 W/m 16,1 km/h (3 Bft) 95,74 %
12.03.2023 07:46 2,0 C 1,7 C -1,7 C 91 % 1009,4 hPa 0,0 l/m 0 min 0 min 13 W/m 16,1 km/h (3 Bft) 95,74 %
12.03.2023 07:48 2,0 C 1,7 C -1,7 C 91 % 1009,4 hPa 0,0 l/m 0 min 0 min 16 W/m 12,9 km/h (3 Bft) 95,65 %
12.03.2023 07:50 2,1 C 1,7 C -1,7 C 91 % 1009,4 hPa 0,0 l/m 0 min 0 min 20 W/m 16,1 km/h (3 Bft) 91,49 %
12.03.2023 07:52 2,0 C 1,7 C -1,7 C 91 % 1009,4 hPa 0,0 l/m 0 min 0 min 22 W/m 16,1 km/h (3 Bft) 93,62 %
12.03.2023 07:54 2,1 C 1,7 C -1,7 C 91 % 1009,4 hPa 0,0 l/m 0 min 0 min 24 W/m 16,1 km/h (3 Bft) 91,49 %
12.03.2023 07:56 2,1 C 1,7 C -1,7 C 92 % 1009,4 hPa 0,0 l/m 0 min 0 min 20 W/m 19,3 km/h (3 Bft) 93,62 %
12.03.2023 07:58 2,1 C 1,7 C -1,7 C 92 % 1009,4 hPa 0,0 l/m 0 min 0 min 18 W/m 12,9 km/h (3 Bft) 95,74 %
12.03.2023 08:00 2,1 C 1,7 C -1,7 C 92 % 1009,4 hPa 0,0 l/m 0 min 0 min 18 W/m 12,9 km/h (3 Bft) 93,62 %
12.03.2023 08:02 2,1 C 1,7 C -1,7 C 92 % 1009,4 hPa 0,0 l/m 0 min 0 min 18 W/m 16,1 km/h (3 Bft) 95,65 %
12.03.2023 08:04 2,1 C 1,7 C -1,7 C 92 % 1009,5 hPa 0,0 l/m 0 min 0 min 18 W/m 16,1 km/h (3 Bft) 95,74 %
12.03.2023 08:06 2,1 C 1,7 C -1,7 C 92 % 1009,3 hPa 0,0 l/m 0 min 0 min 21 W/m 12,9 km/h (3 Bft) 96,61 %
12.03.2023 08:08 2,1 C 1,7 C -1,7 C 92 % 1009,3 hPa 0,0 l/m 0 min 0 min 26 W/m 16,1 km/h (3 Bft) 97,14 %
12.03.2023 08:10 2,1 C 1,7 C -1,7 C 92 % 1009,2 hPa 0,0 l/m 0 min 0 min 31 W/m 22,5 km/h (4 Bft) 100,00 %
12.03.2023 08:12 2,1 C 1,7 C -1,7 C 92 % 1009,2 hPa 0,0 l/m 0 min 0 min 32 W/m 16,1 km/h (3 Bft) 97,87 %
12.03.2023 08:14 2,1 C 1,7 C -1,7 C 92 % 1009,2 hPa 0,0 l/m 0 min 0 min 30 W/m 19,3 km/h (3 Bft) 97,87 %
12.03.2023 08:16 2,1 C 1,7 C -1,7 C 92 % 1009,2 hPa 0,0 l/m 0 min 0 min 27 W/m 16,1 km/h (3 Bft) 100,00 %
12.03.2023 08:18 2,1 C 1,7 C -1,7 C 92 % 1009,1 hPa 0,0 l/m 0 min 0 min 25 W/m 19,3 km/h (3 Bft) 100,00 %
12.03.2023 08:20 2,1 C 1,7 C -1,7 C 92 % 1009,1 hPa 0,0 l/m 0 min 0 min 24 W/m 19,3 km/h (3 Bft) 100,00 %
12.03.2023 08:22 2,1 C 1,7 C -1,1 C 92 % 1009,2 hPa 0,0 l/m 0 min 0 min 25 W/m 16,1 km/h (3 Bft) 97,87 %
12.03.2023 08:24 2,1 C 1,7 C -1,1 C 92 % 1009,2 hPa 0,0 l/m 0 min 0 min 25 W/m 16,1 km/h (3 Bft) 100,00 %
12.03.2023 08:26 2,1 C 1,7 C -1,1 C 92 % 1009,2 hPa 0,0 l/m 0 min 0 min 23 W/m 19,3 km/h (3 Bft) 100,00 %
12.03.2023 08:28 2,1 C 1,7 C -1,1 C 92 % 1009,1 hPa 0,0 l/m 0 min 0 min 21 W/m 12,9 km/h (3 Bft) 100,00 %
12.03.2023 08:30 2,1 C 1,7 C -1,7 C 92 % 1009,1 hPa 0,0 l/m 0 min 0 min 22 W/m 16,1 km/h (3 Bft) 100,00 %
12.03.2023 08:32 2,1 C 1,7 C -1,7 C 92 % 1009,1 hPa 0,0 l/m 0 min 0 min 25 W/m 19,3 km/h (3 Bft) 100,00 %
12.03.2023 08:34 2,1 C 1,7 C -1,1 C 92 % 1009,1 hPa 0,0 l/m 0 min 0 min 25 W/m 16,1 km/h (3 Bft) 100,00 %
12.03.2023 08:36 2,1 C 1,7 C -1,1 C 92 % 1009,0 hPa 0,0 l/m 0 min 0 min 28 W/m 12,9 km/h (3 Bft) 97,87 %
12.03.2023 08:38 2,2 C 2,2 C -1,1 C 92 % 1009,1 hPa 0,0 l/m 0 min 0 min 40 W/m 16,1 km/h (3 Bft) 100,00 %
12.03.2023 08:40 2,2 C 2,2 C -1,1 C 92 % 1009,1 hPa 0,0 l/m 0 min 0 min 48 W/m 16,1 km/h (3 Bft) 97,87 %
12.03.2023 08:42 2,2 C 2,2 C -1,1 C 92 % 1009,1 hPa 0,0 l/m 0 min 0 min 49 W/m 19,3 km/h (3 Bft) 100,00 %
12.03.2023 08:44 2,2 C 2,2 C -1,1 C 92 % 1009,1 hPa 0,0 l/m 0 min 0 min 62 W/m 19,3 km/h (3 Bft) 100,00 %
12.03.2023 08:46 2,3 C 2,2 C -1,1 C 92 % 1009,1 hPa 0,0 l/m 0 min 0 min 81 W/m 16,1 km/h (3 Bft) 97,87 %
12.03.2023 08:48 2,3 C 2,2 C -1,1 C 92 % 1009,0 hPa 0,0 l/m 0 min 0 min 72 W/m 16,1 km/h (3 Bft) 100,00 %
12.03.2023 08:50 2,3 C 2,2 C -1,1 C 92 % 1009,0 hPa 0,0 l/m 0 min 0 min 56 W/m 22,5 km/h (4 Bft) 100,00 %
12.03.2023 08:52 2,3 C 2,2 C -1,1 C 92 % 1009,0 hPa 0,0 l/m 0 min 0 min 55 W/m 19,3 km/h (3 Bft) 97,87 %
12.03.2023 08:54 2,4 C 2,2 C -1,1 C 92 % 1009,0 hPa 0,0 l/m 0 min 0 min 61 W/m 19,3 km/h (3 Bft) 97,87 %
12.03.2023 08:56 2,4 C 2,2 C -1,1 C 92 % 1009,1 hPa 0,0 l/m 0 min 0 min 60 W/m 16,1 km/h (3 Bft) 100,00 %
12.03.2023 08:58 2,4 C 2,2 C -1,1 C 92 % 1009,2 hPa 0,0 l/m 0 min 0 min 62 W/m 12,9 km/h (3 Bft) 97,67 %
12.03.2023 09:00 2,4 C 2,2 C -1,1 C 92 % 1009,2 hPa 0,0 l/m 0 min 0 min 55 W/m 19,3 km/h (3 Bft) 97,83 %
12.03.2023 09:02 2,5 C 2,2 C -1,1 C 92 % 1009,1 hPa 0,0 l/m 0 min 0 min 53 W/m 16,1 km/h (3 Bft) 97,87 %
12.03.2023 09:04 2,5 C 2,2 C -1,1 C 92 % 1009,1 hPa 0,0 l/m 0 min 0 min 52 W/m 16,1 km/h (3 Bft) 100,00 %
12.03.2023 09:06 2,6 C 2,2 C -1,1 C 92 % 1009,1 hPa 0,0 l/m 0 min 0 min 53 W/m 16,1 km/h (3 Bft) 98,31 %
12.03.2023 09:08 2,6 C 2,2 C -1,1 C 92 % 1009,1 hPa 0,0 l/m 0 min 0 min 53 W/m 22,5 km/h (4 Bft) 97,14 %
12.03.2023 09:10 2,6 C 2,2 C -1,1 C 92 % 1009,0 hPa 0,0 l/m 0 min 0 min 56 W/m 16,1 km/h (3 Bft) 97,87 %
12.03.2023 09:12 2,6 C 2,2 C -1,1 C 92 % 1009,1 hPa 0,0 l/m 0 min 0 min 73 W/m 19,3 km/h (3 Bft) 95,74 %
12.03.2023 09:14 2,6 C 2,2 C -1,1 C 92 % 1009,1 hPa 0,0 l/m 0 min 0 min 78 W/m 25,7 km/h (4 Bft) 95,65 %
12.03.2023 09:16 2,6 C 2,2 C -1,1 C 92 % 1009,1 hPa 0,0 l/m 0 min 0 min 70 W/m 16,1 km/h (3 Bft) 97,87 %
12.03.2023 09:18 2,7 C 2,2 C -1,1 C 92 % 1009,1 hPa 0,0 l/m 0 min 0 min 78 W/m 16,1 km/h (3 Bft) 97,87 %
12.03.2023 09:20 2,7 C 2,8 C -1,1 C 92 % 1009,1 hPa 0,0 l/m 0 min 0 min 107 W/m 19,3 km/h (3 Bft) 97,87 %
12.03.2023 09:22 2,8 C 2,8 C -1,1 C 92 % 1009,1 hPa 0,0 l/m 0 min 0 min 115 W/m 19,3 km/h (3 Bft) 95,74 %
12.03.2023 09:24 2,8 C 2,8 C -1,1 C 92 % 1009,1 hPa 0,0 l/m 0 min 0 min 96 W/m 16,1 km/h (3 Bft) 97,87 %
12.03.2023 09:26 2,8 C 2,8 C -1,1 C 92 % 1009,1 hPa 0,0 l/m 0 min 0 min 93 W/m 16,1 km/h (3 Bft) 93,48 %
12.03.2023 09:28 2,8 C 2,8 C -1,1 C 92 % 1009,0 hPa 0,0 l/m 0 min 0 min 114 W/m 12,9 km/h (3 Bft) 97,87 %
12.03.2023 09:30 2,9 C 2,8 C -0,6 C 92 % 1009,0 hPa 0,0 l/m 0 min 0 min 147 W/m 16,1 km/h (3 Bft) 95,74 %
12.03.2023 09:32 2,9 C 2,8 C -0,6 C 92 % 1009,1 hPa 0,0 l/m 0 min 0 min 157 W/m 19,3 km/h (3 Bft) 97,87 %
12.03.2023 09:34 2,9 C 2,8 C -0,6 C 92 % 1009,0 hPa 0,0 l/m 0 min 0 min 147 W/m 19,3 km/h (3 Bft) 95,74 %
12.03.2023 09:36 3,0 C 2,8 C -0,6 C 93 % 1009,0 hPa 0,0 l/m 0 min 0 min 114 W/m 19,3 km/h (3 Bft) 93,62 %
12.03.2023 09:38 3,1 C 2,8 C -0,6 C 93 % 1009,1 hPa 0,0 l/m 0 min 0 min 87 W/m 16,1 km/h (3 Bft) 93,62 %
12.03.2023 09:40 3,1 C 2,8 C -0,6 C 93 % 1009,0 hPa 0,0 l/m 0 min 0 min 99 W/m 22,5 km/h (4 Bft) 95,65 %
12.03.2023 09:42 3,1 C 2,8 C -0,6 C 93 % 1009,0 hPa 0,0 l/m 0 min 0 min 105 W/m 16,1 km/h (3 Bft) 95,74 %
12.03.2023 09:44 3,1 C 2,8 C -1,1 C 93 % 1008,9 hPa 0,2 l/m 0 min 0 min 107 W/m 19,3 km/h (3 Bft) 93,62 %
12.03.2023 09:46 3,1 C 2,8 C -1,1 C 93 % 1009,0 hPa 0,0 l/m 0 min 0 min 108 W/m 16,1 km/h (3 Bft) 95,74 %
12.03.2023 09:48 3,1 C 2,8 C -0,6 C 93 % 1009,0 hPa 0,0 l/m 0 min 0 min 112 W/m 16,1 km/h (3 Bft) 95,74 %
12.03.2023 09:50 3,1 C 2,8 C -0,6 C 93 % 1009,0 hPa 0,0 l/m 0 min 0 min 110 W/m 16,1 km/h (3 Bft) 97,87 %
12.03.2023 09:52 3,1 C 2,8 C -0,6 C 93 % 1009,0 hPa 0,0 l/m 0 min 0 min 94 W/m 12,9 km/h (3 Bft) 93,62 %
12.03.2023 09:54 3,1 C 2,8 C -0,6 C 94 % 1009,0 hPa 0,0 l/m 0 min 0 min 85 W/m 19,3 km/h (3 Bft) 97,83 %
12.03.2023 09:56 3,1 C 2,8 C -0,6 C 94 % 1009,0 hPa 0,0 l/m 0 min 0 min 88 W/m 19,3 km/h (3 Bft) 97,87 %
12.03.2023 09:58 3,1 C 2,8 C -0,6 C 94 % 1009,0 hPa 0,0 l/m 0 min 0 min 87 W/m 16,1 km/h (3 Bft) 95,74 %
12.03.2023 10:00 3,1 C 2,8 C -0,6 C 94 % 1009,0 hPa 0,0 l/m 0 min 0 min 87 W/m 16,1 km/h (3 Bft) 95,74 %
12.03.2023 10:02 3,1 C 2,2 C -0,6 C 94 % 1009,0 hPa 0,0 l/m 0 min 0 min 75 W/m 25,7 km/h (4 Bft) 93,62 %
12.03.2023 10:04 3,1 C 2,2 C -1,1 C 94 % 1009,0 hPa 0,0 l/m 0 min 2 min 57 W/m 19,3 km/h (3 Bft) 95,74 %
12.03.2023 10:06 3,1 C 2,8 C -0,6 C 94 % 1009,0 hPa 0,0 l/m 0 min 2 min 71 W/m 19,3 km/h (3 Bft) 94,83 %
12.03.2023 10:08 3,1 C 2,8 C -0,6 C 94 % 1009,0 hPa 0,0 l/m 0 min 0 min 90 W/m 9,7 km/h (2 Bft) 100,00 %
12.03.2023 10:10 3,1 C 2,8 C -0,6 C 94 % 1009,0 hPa 0,0 l/m 0 min 0 min 89 W/m 16,1 km/h (3 Bft) 95,74 %
12.03.2023 10:12 3,1 C 2,8 C -0,6 C 94 % 1009,0 hPa 0,0 l/m 0 min 0 min 77 W/m 12,9 km/h (3 Bft) 100,00 %
12.03.2023 10:14 3,2 C 2,8 C -0,6 C 94 % 1009,0 hPa 0,0 l/m 0 min 0 min 67 W/m 19,3 km/h (3 Bft) 97,87 %
12.03.2023 10:16 3,2 C 2,8 C -0,6 C 94 % 1009,0 hPa 0,0 l/m 0 min 0 min 78 W/m 9,7 km/h (2 Bft) 95,74 %
12.03.2023 10:18 3,2 C 2,8 C -0,6 C 94 % 1009,0 hPa 0,2 l/m 0 min 0 min 85 W/m 19,3 km/h (3 Bft) 97,87 %
12.03.2023 10:20 3,2 C 2,8 C -0,6 C 94 % 1009,1 hPa 0,0 l/m 0 min 0 min 78 W/m 12,9 km/h (3 Bft) 97,83 %
12.03.2023 10:22 3,3 C 2,8 C -0,6 C 95 % 1009,1 hPa 0,0 l/m 0 min 2 min 81 W/m 19,3 km/h (3 Bft) 93,62 %
12.03.2023 10:24 3,3 C 2,8 C -0,6 C 95 % 1009,1 hPa 0,0 l/m 0 min 0 min 79 W/m 12,9 km/h (3 Bft) 97,87 %
12.03.2023 10:26 3,3 C 2,8 C -0,6 C 95 % 1009,0 hPa 0,0 l/m 0 min 0 min 69 W/m 16,1 km/h (3 Bft) 97,87 %
12.03.2023 10:28 3,3 C 2,8 C -0,6 C 95 % 1009,1 hPa 0,0 l/m 0 min 0 min 69 W/m 9,7 km/h (2 Bft) 95,74 %
12.03.2023 10:30 3,3 C 2,8 C -0,6 C 95 % 1009,1 hPa 0,0 l/m 0 min 0 min 71 W/m 12,9 km/h (3 Bft) 93,62 %
12.03.2023 10:32 3,4 C 2,8 C -0,6 C 95 % 1009,1 hPa 0,0 l/m 0 min 0 min 76 W/m 12,9 km/h (3 Bft) 98,15 %
12.03.2023 10:34 3,4 C 2,8 C -0,6 C 95 % 1009,0 hPa 0,0 l/m 0 min 0 min 87 W/m 12,9 km/h (3 Bft) 97,87 %
12.03.2023 10:36 3,4 C 2,8 C 0,0 C 95 % 1009,0 hPa 0,0 l/m 0 min 0 min 90 W/m 16,1 km/h (3 Bft) 97,87 %
12.03.2023 10:38 3,4 C 3,3 C 0,0 C 95 % 1009,0 hPa 0,0 l/m 0 min 0 min 72 W/m 19,3 km/h (3 Bft) 97,87 %
12.03.2023 10:40 3,5 C 3,3 C 0,0 C 95 % 1009,1 hPa 0,0 l/m 0 min 0 min 57 W/m 9,7 km/h (2 Bft) 95,74 %
12.03.2023 10:42 3,6 C 3,3 C 0,0 C 95 % 1009,2 hPa 0,0 l/m 0 min 0 min 49 W/m 16,1 km/h (3 Bft) 97,83 %
12.03.2023 10:44 3,6 C 3,3 C 0,0 C 95 % 1009,2 hPa 0,0 l/m 0 min 0 min 57 W/m 6,4 km/h (2 Bft) 97,87 %
12.03.2023 10:46 3,6 C 3,3 C 0,0 C 96 % 1009,2 hPa 0,0 l/m 0 min 0 min 63 W/m 12,9 km/h (3 Bft) 95,74 %
12.03.2023 10:48 3,7 C 3,3 C 0,0 C 96 % 1009,2 hPa 0,0 l/m 0 min 2 min 73 W/m 12,9 km/h (3 Bft) 93,62 %
12.03.2023 10:50 3,7 C 3,3 C 0,0 C 96 % 1009,2 hPa 0,2 l/m 0 min 0 min 82 W/m 9,7 km/h (2 Bft) 97,87 %
12.03.2023 10:52 3,7 C 3,3 C 0,0 C 96 % 1009,2 hPa 0,0 l/m 0 min 0 min 90 W/m 9,7 km/h (2 Bft) 95,74 %
12.03.2023 10:54 3,8 C 3,3 C 0,0 C 96 % 1009,1 hPa 0,0 l/m 0 min 0 min 89 W/m 9,7 km/h (2 Bft) 95,65 %
12.03.2023 10:56 3,8 C 3,9 C 0,6 C 96 % 1009,1 hPa 0,2 l/m 0 min 0 min 92 W/m 6,4 km/h (2 Bft) 95,74 %
12.03.2023 10:58 3,9 C 3,9 C 0,6 C 96 % 1009,1 hPa 0,0 l/m 0 min 0 min 85 W/m 12,9 km/h (3 Bft) 100,00 %
12.03.2023 11:00 3,9 C 3,9 C 0,6 C 96 % 1009,1 hPa 0,0 l/m 0 min 0 min 90 W/m 12,9 km/h (3 Bft) 100,00 %
12.03.2023 11:02 4,0 C 3,9 C 0,6 C 96 % 1009,1 hPa 0,0 l/m 0 min 0 min 81 W/m 6,4 km/h (2 Bft) 95,74 %
12.03.2023 11:04 4,1 C 3,9 C 0,6 C 96 % 1009,2 hPa 0,0 l/m 0 min 0 min 82 W/m 6,4 km/h (2 Bft) 95,74 %
12.03.2023 11:06 4,1 C 3,9 C 0,6 C 96 % 1009,2 hPa 0,0 l/m 0 min 0 min 74 W/m 6,4 km/h (2 Bft) 97,87 %
12.03.2023 11:08 4,2 C 3,9 C 0,6 C 96 % 1009,2 hPa 0,0 l/m 0 min 0 min 72 W/m 12,9 km/h (3 Bft) 97,87 %
12.03.2023 11:10 4,2 C 3,9 C 0,6 C 96 % 1009,1 hPa 0,2 l/m 0 min 0 min 65 W/m 12,9 km/h (3 Bft) 97,87 %
12.03.2023 11:12 4,3 C 3,9 C 0,6 C 96 % 1009,1 hPa 0,0 l/m 0 min 0 min 77 W/m 9,7 km/h (2 Bft) 97,87 %
12.03.2023 11:14 4,3 C 4,4 C 0,6 C 96 % 1009,2 hPa 0,0 l/m 0 min 0 min 94 W/m 12,9 km/h (3 Bft) 100,00 %
12.03.2023 11:16 4,4 C 4,4 C 0,6 C 96 % 1009,2 hPa 0,0 l/m 0 min 0 min 65 W/m 9,7 km/h (2 Bft) 97,87 %
12.03.2023 11:18 4,4 C 4,4 C 0,6 C 96 % 1009,3 hPa 0,0 l/m 0 min 0 min 69 W/m 6,4 km/h (2 Bft) 100,00 %
12.03.2023 11:20 4,5 C 4,4 C 1,1 C 97 % 1009,2 hPa 0,0 l/m 0 min 0 min 98 W/m 9,7 km/h (2 Bft) 100,00 %
12.03.2023 11:22 4,6 C 4,4 C 1,1 C 97 % 1009,3 hPa 0,0 l/m 0 min 0 min 92 W/m 9,7 km/h (2 Bft) 97,83 %
12.03.2023 11:24 4,6 C 4,4 C 1,1 C 97 % 1009,3 hPa 0,0 l/m 0 min 0 min 80 W/m 12,9 km/h (3 Bft) 97,87 %
12.03.2023 11:26 4,7 C 4,4 C 1,1 C 97 % 1009,3 hPa 0,0 l/m 0 min 0 min 83 W/m 12,9 km/h (3 Bft) 100,00 %
12.03.2023 11:28 4,7 C 4,4 C 1,1 C 97 % 1009,3 hPa 0,0 l/m 0 min 0 min 97 W/m 9,7 km/h (2 Bft) 97,87 %
12.03.2023 11:30 4,8 C 4,4 C 1,1 C 97 % 1009,2 hPa 0,0 l/m 0 min 0 min 91 W/m 6,4 km/h (2 Bft) 100,00 %
12.03.2023 11:32 4,8 C 5,0 C 1,1 C 97 % 1009,3 hPa 0,0 l/m 0 min 0 min 91 W/m 12,9 km/h (3 Bft) 97,87 %
12.03.2023 11:34 4,9 C 5,0 C 1,1 C 97 % 1009,3 hPa 0,0 l/m 0 min 0 min 91 W/m 12,9 km/h (3 Bft) 91,49 %
12.03.2023 11:36 4,9 C 5,0 C 1,1 C 97 % 1009,3 hPa 0,0 l/m 0 min 0 min 92 W/m 12,9 km/h (3 Bft) 91,30 %
12.03.2023 11:38 5,0 C 5,0 C 1,7 C 97 % 1009,3 hPa 0,0 l/m 0 min 0 min 101 W/m 6,4 km/h (2 Bft) 93,62 %
12.03.2023 11:40 5,1 C 5,0 C 1,7 C 97 % 1009,3 hPa 0,2 l/m 0 min 0 min 79 W/m 9,7 km/h (2 Bft) 97,87 %
12.03.2023 11:42 5,1 C 5,0 C 1,7 C 97 % 1009,4 hPa 0,0 l/m 0 min 0 min 76 W/m 6,4 km/h (2 Bft) 95,74 %
12.03.2023 11:44 5,2 C 5,0 C 1,7 C 97 % 1009,4 hPa 0,0 l/m 0 min 0 min 76 W/m 9,7 km/h (2 Bft) 93,62 %
12.03.2023 11:46 5,2 C 5,0 C 1,7 C 97 % 1009,4 hPa 0,0 l/m 0 min 0 min 69 W/m 12,9 km/h (3 Bft) 95,74 %
12.03.2023 11:48 5,3 C 5,0 C 1,7 C 97 % 1009,4 hPa 0,0 l/m 0 min 0 min 64 W/m 6,4 km/h (2 Bft) 95,74 %
12.03.2023 11:50 5,3 C 5,0 C 1,7 C 97 % 1009,4 hPa 0,0 l/m 0 min 0 min 62 W/m 6,4 km/h (2 Bft) 95,65 %
12.03.2023 11:52 5,4 C 5,0 C 1,7 C 97 % 1009,4 hPa 0,0 l/m 0 min 0 min 59 W/m 3,2 km/h (1 Bft) 93,62 %
12.03.2023 11:54 5,4 C 5,0 C 1,7 C 97 % 1009,3 hPa 0,0 l/m 0 min 0 min 62 W/m 3,2 km/h (1 Bft) 95,74 %
12.03.2023 11:56 5,4 C 5,6 C 1,7 C 97 % 1009,4 hPa 0,0 l/m 0 min 0 min 61 W/m 3,2 km/h (1 Bft) 95,74 %
12.03.2023 11:58 5,5 C 5,6 C 1,7 C 97 % 1009,4 hPa 0,0 l/m 0 min 0 min 71 W/m 3,2 km/h (1 Bft) 93,75 %
12.03.2023 12:00 5,6 C 5,6 C 1,7 C 97 % 1009,4 hPa 0,0 l/m 0 min 0 min 71 W/m 12,9 km/h (3 Bft) 95,74 %
12.03.2023 12:02 5,6 C 5,6 C 1,7 C 97 % 1009,3 hPa 0,0 l/m 0 min 0 min 91 W/m 3,2 km/h (1 Bft) 95,65 %
12.03.2023 12:04 5,7 C 5,6 C 2,2 C 97 % 1009,3 hPa 0,0 l/m 0 min 0 min 112 W/m 6,4 km/h (2 Bft) 95,74 %
12.03.2023 12:07 5,8 C 6,1 C 2,2 C 98 % 1009,3 hPa 0,0 l/m 0 min 3 min 108 W/m 9,7 km/h (2 Bft) 95,77 %
12.03.2023 12:08 5,8 C 6,1 C 2,2 C 98 % 1009,3 hPa 0,0 l/m 0 min 0 min 91 W/m 3,2 km/h (1 Bft) 100,00 %
12.03.2023 12:12 5,9 C 6,1 C 2,2 C 98 % 1009,3 hPa 0,0 l/m 0 min 0 min 113 W/m 9,7 km/h (2 Bft) 95,83 %
12.03.2023 12:14 6,1 C 6,7 C 2,8 C 98 % 1009,2 hPa 0,0 l/m 0 min 0 min 121 W/m 6,4 km/h (2 Bft) 97,87 %
12.03.2023 12:16 6,2 C 6,7 C 2,8 C 98 % 1009,1 hPa 0,0 l/m 0 min 0 min 104 W/m 12,9 km/h (3 Bft) 95,74 %
12.03.2023 12:18 6,3 C 6,7 C 2,8 C 98 % 1009,2 hPa 0,0 l/m 0 min 2 min 91 W/m 9,7 km/h (2 Bft) 97,87 %
12.03.2023 12:20 6,5 C 6,7 C 2,8 C 98 % 1009,2 hPa 0,0 l/m 0 min 0 min 108 W/m 9,7 km/h (2 Bft) 95,74 %
12.03.2023 12:22 6,7 C 7,2 C 2,8 C 98 % 1009,2 hPa 0,0 l/m 0 min 0 min 163 W/m 12,9 km/h (3 Bft) 97,83 %
12.03.2023 12:24 6,8 C 7,2 C 3,3 C 98 % 1009,1 hPa 0,0 l/m 0 min 0 min 166 W/m 12,9 km/h (3 Bft) 97,87 %
12.03.2023 12:26 7,1 C 7,8 C 3,3 C 98 % 1009,1 hPa 0,0 l/m 0 min 0 min 186 W/m 6,4 km/h (2 Bft) 97,87 %
12.03.2023 12:28 7,4 C 7,8 C 3,9 C 98 % 1009,0 hPa 0,0 l/m 0 min 0 min 181 W/m 12,9 km/h (3 Bft) 97,87 %
12.03.2023 12:30 7,6 C 7,8 C 3,9 C 98 % 1009,1 hPa 0,0 l/m 0 min 0 min 156 W/m 6,4 km/h (2 Bft) 97,87 %
12.03.2023 12:32 7,8 C 7,8 C 3,9 C 98 % 1009,0 hPa 0,0 l/m 0 min 0 min 145 W/m 12,9 km/h (3 Bft) 97,87 %
12.03.2023 12:34 7,9 C 8,3 C 3,9 C 98 % 1009,1 hPa 0,0 l/m 0 min 0 min 154 W/m 12,9 km/h (3 Bft) 100,00 %
12.03.2023 12:36 8,0 C 8,3 C 3,9 C 98 % 1009,1 hPa 0,0 l/m 0 min 0 min 156 W/m 19,3 km/h (3 Bft) 97,87 %
12.03.2023 12:38 8,1 C 8,3 C 3,9 C 99 % 1009,2 hPa 0,0 l/m 0 min 0 min 108 W/m 6,4 km/h (2 Bft) 100,00 %
12.03.2023 12:40 8,1 C 8,3 C 3,9 C 99 % 1009,2 hPa 0,0 l/m 0 min 0 min 104 W/m 9,7 km/h (2 Bft) 100,00 %
12.03.2023 12:42 8,2 C 8,3 C 4,4 C 99 % 1009,1 hPa 0,0 l/m 0 min 0 min 155 W/m 12,9 km/h (3 Bft) 97,87 %
12.03.2023 12:44 8,2 C 8,3 C 4,4 C 98 % 1009,2 hPa 0,0 l/m 0 min 0 min 157 W/m 12,9 km/h (3 Bft) 100,00 %
12.03.2023 12:46 8,3 C 8,3 C 4,4 C 98 % 1009,1 hPa 0,0 l/m 0 min 0 min 145 W/m 9,7 km/h (2 Bft) 100,00 %
12.03.2023 12:48 8,3 C 8,3 C 4,4 C 98 % 1009,2 hPa 0,0 l/m 0 min 0 min 172 W/m 12,9 km/h (3 Bft) 100,00 %
12.03.2023 12:50 8,4 C 8,3 C 4,4 C 99 % 1009,2 hPa 0,0 l/m 0 min 0 min 137 W/m 12,9 km/h (3 Bft) 95,74 %
12.03.2023 12:52 8,4 C 8,3 C 4,4 C 99 % 1009,2 hPa 0,0 l/m 0 min 0 min 135 W/m 12,9 km/h (3 Bft) 95,74 %
12.03.2023 12:54 8,5 C 8,3 C 4,4 C 99 % 1009,2 hPa 0,0 l/m 0 min 0 min 119 W/m 16,1 km/h (3 Bft) 97,87 %
12.03.2023 12:56 8,5 C 8,3 C 4,4 C 99 % 1009,2 hPa 0,0 l/m 0 min 0 min 104 W/m 6,4 km/h (2 Bft) 97,87 %
12.03.2023 12:58 8,6 C 8,9 C 4,4 C 99 % 1009,2 hPa 0,0 l/m 0 min 0 min 163 W/m 12,9 km/h (3 Bft) 97,87 %
12.03.2023 13:00 8,6 C 8,9 C 4,4 C 99 % 1009,1 hPa 0,0 l/m 0 min 0 min 177 W/m 16,1 km/h (3 Bft) 95,74 %
12.03.2023 13:02 8,7 C 8,9 C 4,4 C 99 % 1009,2 hPa 0,0 l/m 0 min 0 min 113 W/m 9,7 km/h (2 Bft) 97,83 %
12.03.2023 13:04 8,7 C 8,9 C 4,4 C 99 % 1009,1 hPa 0,0 l/m 0 min 0 min 96 W/m 12,9 km/h (3 Bft) 97,87 %
12.03.2023 13:06 8,7 C 8,3 C 4,4 C 99 % 1009,1 hPa 0,0 l/m 0 min 0 min 87 W/m 16,1 km/h (3 Bft) 96,15 %
12.03.2023 13:08 8,7 C 8,9 C 4,4 C 99 % 1009,2 hPa 0,0 l/m 0 min 0 min 129 W/m 12,9 km/h (3 Bft) 95,24 %
12.03.2023 13:10 8,8 C 8,9 C 4,4 C 99 % 1009,2 hPa 0,0 l/m 0 min 0 min 148 W/m 12,9 km/h (3 Bft) 97,87 %
12.03.2023 13:12 8,8 C 8,9 C 5,0 C 99 % 1009,1 hPa 0,0 l/m 0 min 0 min 163 W/m 12,9 km/h (3 Bft) 97,87 %
12.03.2023 13:14 8,8 C 9,4 C 5,0 C 99 % 1009,1 hPa 0,0 l/m 0 min 0 min 194 W/m 12,9 km/h (3 Bft) 97,87 %
12.03.2023 13:16 8,9 C 9,4 C 5,0 C 99 % 1009,1 hPa 0,0 l/m 0 min 0 min 170 W/m 12,9 km/h (3 Bft) 97,83 %
12.03.2023 13:18 8,9 C 9,4 C 5,0 C 99 % 1009,1 hPa 0,0 l/m 0 min 0 min 173 W/m 12,9 km/h (3 Bft) 95,74 %
12.03.2023 13:20 9,1 C 9,4 C 5,0 C 99 % 1009,1 hPa 0,0 l/m 0 min 0 min 156 W/m 16,1 km/h (3 Bft) 95,74 %
12.03.2023 13:22 9,1 C 9,4 C 5,0 C 99 % 1009,1 hPa 0,0 l/m 0 min 0 min 161 W/m 12,9 km/h (3 Bft) 97,87 %
12.03.2023 13:24 9,1 C 9,4 C 5,0 C 99 % 1009,2 hPa 0,0 l/m 0 min 0 min 128 W/m 19,3 km/h (3 Bft) 93,62 %
12.03.2023 13:26 9,1 C 9,4 C 5,0 C 99 % 1009,2 hPa 0,0 l/m 0 min 0 min 118 W/m 16,1 km/h (3 Bft) 97,87 %
12.03.2023 13:28 9,2 C 9,4 C 5,0 C 99 % 1009,1 hPa 0,0 l/m 0 min 0 min 143 W/m 12,9 km/h (3 Bft) 95,65 %
12.03.2023 13:30 9,2 C 10,0 C 5,0 C 99 % 1009,1 hPa 0,0 l/m 0 min 0 min 198 W/m 6,4 km/h (2 Bft) 95,74 %
12.03.2023 13:32 9,3 C 10,0 C 5,6 C 99 % 1009,1 hPa 0,0 l/m 0 min 0 min 221 W/m 12,9 km/h (3 Bft) 93,62 %
12.03.2023 13:34 9,3 C 10,0 C 5,6 C 99 % 1009,0 hPa 0,0 l/m 0 min 0 min 226 W/m 16,1 km/h (3 Bft) 97,87 %
12.03.2023 13:36 9,4 C 10,6 C 5,6 C 99 % 1009,0 hPa 0,0 l/m 0 min 0 min 247 W/m 16,1 km/h (3 Bft) 93,62 %
12.03.2023 13:38 9,5 C 10,6 C 5,6 C 99 % 1009,0 hPa 0,0 l/m 2 min 0 min 279 W/m 12,9 km/h (3 Bft) 100,00 %
12.03.2023 13:40 9,6 C 11,7 C 5,6 C 99 % 1008,9 hPa 0,0 l/m 2 min 0 min 367 W/m 19,3 km/h (3 Bft) 95,74 %
12.03.2023 13:42 9,7 C 12,2 C 5,6 C 99 % 1008,8 hPa 0,0 l/m 2 min 0 min 420 W/m 16,1 km/h (3 Bft) 95,65 %
12.03.2023 13:44 9,8 C 12,2 C 6,1 C 99 % 1008,8 hPa 0,0 l/m 0 min 0 min 274 W/m 16,1 km/h (3 Bft) 95,74 %
12.03.2023 13:46 9,9 C 11,7 C 6,1 C 99 % 1008,8 hPa 0,0 l/m 0 min 0 min 227 W/m 12,9 km/h (3 Bft) 97,87 %
12.03.2023 13:48 9,9 C 11,1 C 6,1 C 99 % 1008,8 hPa 0,0 l/m 0 min 0 min 203 W/m 9,7 km/h (2 Bft) 97,87 %
12.03.2023 13:50 9,9 C 11,1 C 6,1 C 98 % 1008,8 hPa 0,0 l/m 0 min 0 min 234 W/m 6,4 km/h (2 Bft) 95,74 %
12.03.2023 13:52 10,0 C 11,7 C 6,1 C 98 % 1008,7 hPa 0,0 l/m 0 min 0 min 269 W/m 9,7 km/h (2 Bft) 100,00 %
12.03.2023 13:54 10,1 C 11,7 C 6,1 C 98 % 1008,7 hPa 0,0 l/m 2 min 0 min 285 W/m 12,9 km/h (3 Bft) 95,74 %
12.03.2023 13:56 10,2 C 11,7 C 6,1 C 98 % 1008,7 hPa 0,0 l/m 0 min 0 min 253 W/m 6,4 km/h (2 Bft) 54,35 %
12.03.2023 13:58 10,2 C 11,1 C 6,1 C 98 % 1008,6 hPa 0,0 l/m 0 min 0 min 176 W/m 16,1 km/h (3 Bft) 97,87 %
12.03.2023 14:00 10,2 C 11,1 C 6,1 C 98 % 1008,5 hPa 0,0 l/m 0 min 0 min 157 W/m 6,4 km/h (2 Bft) 97,87 %
12.03.2023 14:02 10,2 C 11,1 C 6,1 C 98 % 1008,5 hPa 0,0 l/m 0 min 0 min 126 W/m 16,1 km/h (3 Bft) 97,87 %
12.03.2023 14:04 10,2 C 10,6 C 6,1 C 98 % 1008,6 hPa 0,0 l/m 0 min 0 min 97 W/m 9,7 km/h (2 Bft) 97,87 %
12.03.2023 14:06 10,2 C 10,6 C 6,1 C 98 % 1008,6 hPa 0,0 l/m 0 min 0 min 69 W/m 16,1 km/h (3 Bft) 97,87 %
12.03.2023 14:08 10,2 C 10,0 C 6,1 C 98 % 1008,5 hPa 0,0 l/m 0 min 0 min 66 W/m 6,4 km/h (2 Bft) 96,15 %
12.03.2023 14:10 10,2 C 10,0 C 5,6 C 97 % 1008,5 hPa 0,0 l/m 0 min 0 min 91 W/m 12,9 km/h (3 Bft) 97,56 %
12.03.2023 14:12 10,2 C 10,6 C 6,1 C 97 % 1008,5 hPa 0,0 l/m 0 min 0 min 107 W/m 12,9 km/h (3 Bft) 93,62 %
12.03.2023 14:14 10,2 C 10,0 C 6,1 C 97 % 1008,5 hPa 0,0 l/m 0 min 0 min 90 W/m 9,7 km/h (2 Bft) 95,74 %
12.03.2023 14:16 10,2 C 10,0 C 5,6 C 97 % 1008,4 hPa 0,0 l/m 0 min 0 min 79 W/m 12,9 km/h (3 Bft) 97,87 %
12.03.2023 14:18 10,2 C 10,0 C 5,6 C 97 % 1008,4 hPa 0,0 l/m 0 min 0 min 48 W/m 16,1 km/h (3 Bft) 97,87 %
12.03.2023 14:20 10,3 C 10,0 C 5,6 C 97 % 1008,3 hPa 0,0 l/m 0 min 0 min 34 W/m 16,1 km/h (3 Bft) 95,74 %
12.03.2023 14:22 10,2 C 10,0 C 5,6 C 97 % 1008,3 hPa 0,0 l/m 0 min 2 min 21 W/m 9,7 km/h (2 Bft) 98,18 %
12.03.2023 14:24 10,2 C 9,4 C 5,6 C 97 % 1008,3 hPa 0,0 l/m 0 min 2 min 18 W/m 6,4 km/h (2 Bft) 100,00 %
12.03.2023 14:26 10,2 C 9,4 C 5,6 C 96 % 1008,4 hPa 0,0 l/m 0 min 2 min 24 W/m 6,4 km/h (2 Bft) 100,00 %
12.03.2023 14:28 10,2 C 9,4 C 5,6 C 96 % 1008,4 hPa 0,0 l/m 0 min 2 min 34 W/m 6,4 km/h (2 Bft) 97,87 %
12.03.2023 14:30 10,2 C 9,4 C 5,6 C 96 % 1008,4 hPa 0,2 l/m 0 min 0 min 32 W/m 6,4 km/h (2 Bft) 97,87 %
12.03.2023 14:32 10,1 C 9,4 C 5,6 C 96 % 1008,4 hPa 0,0 l/m 0 min 0 min 33 W/m 12,9 km/h (3 Bft) 97,87 %
12.03.2023 14:34 10,1 C 9,4 C 5,0 C 96 % 1008,5 hPa 0,0 l/m 0 min 2 min 58 W/m 12,9 km/h (3 Bft) 95,74 %
12.03.2023 14:36 10,1 C 9,4 C 5,6 C 96 % 1008,4 hPa 0,0 l/m 0 min 0 min 112 W/m 6,4 km/h (2 Bft) 95,74 %
12.03.2023 14:38 10,1 C 10,0 C 5,6 C 96 % 1008,5 hPa 0,0 l/m 0 min 0 min 155 W/m 6,4 km/h (2 Bft) 97,87 %
12.03.2023 14:40 10,1 C 10,0 C 5,6 C 96 % 1008,5 hPa 0,0 l/m 0 min 0 min 143 W/m 9,7 km/h (2 Bft) 97,83 %
12.03.2023 14:42 10,2 C 10,0 C 5,6 C 96 % 1008,4 hPa 0,0 l/m 0 min 0 min 164 W/m 6,4 km/h (2 Bft) 93,62 %
12.03.2023 14:44 10,2 C 10,6 C 5,6 C 96 % 1008,4 hPa 0,0 l/m 0 min 0 min 170 W/m 12,9 km/h (3 Bft) 95,74 %
12.03.2023 14:46 10,3 C 10,6 C 6,1 C 96 % 1008,3 hPa 0,0 l/m 0 min 0 min 150 W/m 6,4 km/h (2 Bft) 95,74 %
12.03.2023 14:48 10,3 C 10,6 C 6,1 C 96 % 1008,3 hPa 0,0 l/m 0 min 0 min 141 W/m 6,4 km/h (2 Bft) 95,74 %
12.03.2023 14:50 10,3 C 10,6 C 6,1 C 96 % 1008,2 hPa 0,0 l/m 0 min 0 min 112 W/m 16,1 km/h (3 Bft) 91,49 %
12.03.2023 14:52 10,4 C 10,6 C 5,6 C 96 % 1008,2 hPa 0,0 l/m 0 min 0 min 91 W/m 12,9 km/h (3 Bft) 97,87 %
12.03.2023 14:54 10,4 C 10,0 C 5,6 C 96 % 1008,1 hPa 0,0 l/m 0 min 0 min 74 W/m 12,9 km/h (3 Bft) 97,87 %
12.03.2023 14:56 10,4 C 10,0 C 5,6 C 95 % 1008,1 hPa 0,0 l/m 0 min 0 min 72 W/m 19,3 km/h (3 Bft) 97,87 %
12.03.2023 14:58 10,4 C 10,0 C 5,6 C 95 % 1008,1 hPa 0,0 l/m 0 min 0 min 54 W/m 6,4 km/h (2 Bft) 100,00 %
12.03.2023 15:00 10,4 C 10,0 C 5,6 C 95 % 1008,0 hPa 0,0 l/m 0 min 0 min 38 W/m 6,4 km/h (2 Bft) 94,34 %
12.03.2023 15:02 10,4 C 10,0 C 5,6 C 95 % 1008,1 hPa 0,0 l/m 0 min 0 min 35 W/m 9,7 km/h (2 Bft) 97,87 %
12.03.2023 15:04 10,4 C 10,0 C 5,6 C 95 % 1008,1 hPa 0,0 l/m 0 min 2 min 58 W/m 12,9 km/h (3 Bft) 97,87 %
12.03.2023 15:06 10,4 C 10,0 C 5,6 C 95 % 1008,1 hPa 0,0 l/m 0 min 0 min 101 W/m 9,7 km/h (2 Bft) 95,74 %
12.03.2023 15:08 10,4 C 10,6 C 5,6 C 94 % 1008,0 hPa 0,0 l/m 0 min 0 min 156 W/m 12,9 km/h (3 Bft) 95,74 %
12.03.2023 15:10 10,4 C 10,6 C 5,6 C 95 % 1008,0 hPa 0,0 l/m 0 min 0 min 190 W/m 12,9 km/h (3 Bft) 95,65 %
12.03.2023 15:12 10,5 C 11,1 C 6,1 C 94 % 1007,9 hPa 0,0 l/m 0 min 0 min 196 W/m 9,7 km/h (2 Bft) 97,87 %
12.03.2023 15:14 10,6 C 11,1 C 6,1 C 94 % 1007,9 hPa 0,0 l/m 0 min 0 min 197 W/m 6,4 km/h (2 Bft) 100,00 %
12.03.2023 15:16 10,6 C 11,1 C 6,1 C 94 % 1008,0 hPa 0,0 l/m 0 min 0 min 192 W/m 12,9 km/h (3 Bft) 100,00 %
12.03.2023 15:18 10,6 C 11,1 C 6,1 C 94 % 1008,1 hPa 0,0 l/m 0 min 0 min 185 W/m 16,1 km/h (3 Bft) 97,87 %
12.03.2023 15:20 10,7 C 11,1 C 6,1 C 94 % 1008,0 hPa 0,0 l/m 0 min 0 min 164 W/m 12,9 km/h (3 Bft) 100,00 %
12.03.2023 15:22 10,8 C 11,1 C 6,1 C 93 % 1008,0 hPa 0,0 l/m 0 min 0 min 142 W/m 22,5 km/h (4 Bft) 100,00 %
12.03.2023 15:24 10,8 C 11,1 C 6,1 C 92 % 1008,0 hPa 0,0 l/m 0 min 0 min 128 W/m 19,3 km/h (3 Bft) 97,87 %
12.03.2023 15:26 10,8 C 11,1 C 6,1 C 92 % 1008,0 hPa 0,0 l/m 0 min 0 min 136 W/m 16,1 km/h (3 Bft) 100,00 %
12.03.2023 15:28 10,9 C 11,1 C 6,1 C 91 % 1008,0 hPa 0,0 l/m 0 min 0 min 139 W/m 16,1 km/h (3 Bft) 97,87 %
12.03.2023 15:30 10,9 C 11,1 C 6,1 C 91 % 1008,0 hPa 0,0 l/m 0 min 0 min 138 W/m 9,7 km/h (2 Bft) 93,48 %
12.03.2023 15:32 11,0 C 11,1 C 6,1 C 90 % 1008,1 hPa 0,0 l/m 0 min 0 min 117 W/m 16,1 km/h (3 Bft) 95,74 %
12.03.2023 15:34 11,0 C 11,1 C 6,1 C 90 % 1008,1 hPa 0,0 l/m 0 min 0 min 108 W/m 16,1 km/h (3 Bft) 100,00 %
12.03.2023 15:36 11,0 C 11,1 C 6,1 C 89 % 1008,2 hPa 0,0 l/m 0 min 0 min 115 W/m 12,9 km/h (3 Bft) 97,87 %
12.03.2023 15:38 11,1 C 11,1 C 6,1 C 89 % 1008,2 hPa 0,0 l/m 0 min 0 min 114 W/m 19,3 km/h (3 Bft) 97,87 %
12.03.2023 15:40 11,1 C 11,1 C 6,1 C 88 % 1008,2 hPa 0,0 l/m 0 min 0 min 93 W/m 16,1 km/h (3 Bft) 97,87 %
12.03.2023 15:42 11,1 C 10,6 C 6,1 C 88 % 1008,3 hPa 0,0 l/m 0 min 0 min 85 W/m 25,7 km/h (4 Bft) 95,74 %
12.03.2023 15:44 11,1 C 11,1 C 6,1 C 88 % 1008,3 hPa 0,0 l/m 0 min 0 min 87 W/m 19,3 km/h (3 Bft) 93,62 %
12.03.2023 15:46 11,1 C 11,1 C 6,1 C 88 % 1008,3 hPa 0,0 l/m 0 min 0 min 95 W/m 25,7 km/h (4 Bft) 95,74 %
12.03.2023 15:48 11,1 C 11,1 C 6,1 C 87 % 1008,3 hPa 0,0 l/m 0 min 0 min 139 W/m 16,1 km/h (3 Bft) 95,74 %
12.03.2023 15:50 11,2 C 11,1 C 6,1 C 87 % 1008,3 hPa 0,0 l/m 0 min 0 min 184 W/m 22,5 km/h (4 Bft) 95,65 %
12.03.2023 15:52 11,2 C 11,7 C 6,1 C 86 % 1008,3 hPa 0,0 l/m 0 min 0 min 183 W/m 22,5 km/h (4 Bft) 93,62 %
12.03.2023 15:54 11,3 C 11,7 C 6,1 C 86 % 1008,3 hPa 0,0 l/m 2 min 0 min 194 W/m 22,5 km/h (4 Bft) 95,74 %
12.03.2023 15:56 11,3 C 11,7 C 6,1 C 86 % 1008,4 hPa 0,0 l/m 2 min 0 min 194 W/m 19,3 km/h (3 Bft) 51,06 %
12.03.2023 15:58 11,4 C 11,7 C 6,1 C 86 % 1008,4 hPa 0,0 l/m 2 min 0 min 188 W/m 16,1 km/h (3 Bft) 95,74 %
12.03.2023 16:00 11,4 C 11,7 C 6,1 C 86 % 1008,3 hPa 0,0 l/m 2 min 0 min 189 W/m 19,3 km/h (3 Bft) 93,62 %
12.03.2023 16:02 11,5 C 11,7 C 6,7 C 86 % 1008,4 hPa 0,0 l/m 2 min 0 min 188 W/m 29,0 km/h (5 Bft) 95,74 %
12.03.2023 16:04 11,6 C 11,7 C 6,1 C 85 % 1008,5 hPa 0,0 l/m 0 min 0 min 165 W/m 22,5 km/h (4 Bft) 95,74 %
12.03.2023 16:06 11,6 C 11,7 C 6,1 C 85 % 1008,5 hPa 0,0 l/m 0 min 0 min 138 W/m 22,5 km/h (4 Bft) 95,65 %
12.03.2023 16:08 11,6 C 11,7 C 6,1 C 85 % 1008,4 hPa 0,0 l/m 0 min 0 min 136 W/m 19,3 km/h (3 Bft) 93,62 %
12.03.2023 16:10 11,6 C 11,7 C 6,1 C 84 % 1008,4 hPa 0,0 l/m 0 min 0 min 130 W/m 29,0 km/h (5 Bft) 95,74 %
12.03.2023 16:12 11,6 C 11,1 C 6,1 C 84 % 1008,4 hPa 0,0 l/m 0 min 0 min 132 W/m 19,3 km/h (3 Bft) 95,74 %
12.03.2023 16:14 11,6 C 11,1 C 6,7 C 83 % 1008,3 hPa 0,0 l/m 0 min 0 min 125 W/m 29,0 km/h (5 Bft) 94,74 %
12.03.2023 16:16 11,6 C 11,1 C 6,7 C 83 % 1008,3 hPa 0,0 l/m 0 min 0 min 112 W/m 22,5 km/h (4 Bft) 93,88 %
12.03.2023 16:18 11,6 C 11,1 C 6,7 C 83 % 1008,4 hPa 0,0 l/m 0 min 0 min 96 W/m 19,3 km/h (3 Bft) 95,74 %
12.03.2023 16:20 11,6 C 11,1 C 7,2 C 82 % 1008,4 hPa 0,0 l/m 0 min 0 min 89 W/m 22,5 km/h (4 Bft) 93,62 %
12.03.2023 16:22 11,5 C 11,1 C 7,2 C 82 % 1008,3 hPa 0,0 l/m 0 min 0 min 100 W/m 22,5 km/h (4 Bft) 100,00 %
12.03.2023 16:24 11,5 C 11,1 C 7,2 C 82 % 1008,3 hPa 0,0 l/m 0 min 0 min 106 W/m 29,0 km/h (5 Bft) 100,00 %
12.03.2023 16:26 11,5 C 11,1 C 7,2 C 82 % 1008,3 hPa 0,0 l/m 0 min 0 min 104 W/m 25,7 km/h (4 Bft) 97,87 %
12.03.2023 16:28 11,5 C 11,1 C 7,2 C 82 % 1008,4 hPa 0,0 l/m 0 min 0 min 87 W/m 25,7 km/h (4 Bft) 100,00 %
12.03.2023 16:30 11,5 C 11,1 C 7,2 C 82 % 1008,3 hPa 0,0 l/m 0 min 0 min 93 W/m 22,5 km/h (4 Bft) 100,00 %
12.03.2023 16:32 11,5 C 11,1 C 7,2 C 82 % 1008,3 hPa 0,0 l/m 0 min 0 min 113 W/m 19,3 km/h (3 Bft) 100,00 %
12.03.2023 16:34 11,5 C 11,1 C 7,2 C 82 % 1008,5 hPa 0,0 l/m 0 min 0 min 105 W/m 16,1 km/h (3 Bft) 97,87 %
12.03.2023 16:36 11,5 C 11,1 C 7,2 C 82 % 1008,4 hPa 0,0 l/m 0 min 0 min 111 W/m 22,5 km/h (4 Bft) 100,00 %
12.03.2023 16:38 11,5 C 11,1 C 7,2 C 81 % 1008,3 hPa 0,0 l/m 0 min 0 min 106 W/m 41,8 km/h (6 Bft) 100,00 %
12.03.2023 16:40 11,6 C 11,1 C 7,2 C 81 % 1008,3 hPa 0,0 l/m 0 min 0 min 100 W/m 41,8 km/h (6 Bft) 100,00 %
12.03.2023 16:42 11,6 C 11,1 C 7,2 C 80 % 1008,4 hPa 0,0 l/m 0 min 0 min 97 W/m 22,5 km/h (4 Bft) 100,00 %
12.03.2023 16:44 11,6 C 11,1 C 7,2 C 80 % 1008,5 hPa 0,0 l/m 0 min 0 min 92 W/m 19,3 km/h (3 Bft) 100,00 %
12.03.2023 16:46 11,6 C 11,1 C 7,2 C 80 % 1008,5 hPa 0,0 l/m 0 min 0 min 83 W/m 19,3 km/h (3 Bft) 97,87 %
12.03.2023 16:48 11,6 C 11,1 C 7,2 C 80 % 1008,6 hPa 0,0 l/m 0 min 0 min 75 W/m 19,3 km/h (3 Bft) 95,65 %
12.03.2023 16:50 11,5 C 11,1 C 7,2 C 80 % 1008,6 hPa 0,0 l/m 0 min 0 min 70 W/m 19,3 km/h (3 Bft) 100,00 %
12.03.2023 16:52 11,5 C 11,1 C 7,2 C 80 % 1008,5 hPa 0,0 l/m 0 min 0 min 74 W/m 19,3 km/h (3 Bft) 100,00 %
12.03.2023 16:54 11,5 C 11,1 C 7,2 C 80 % 1008,5 hPa 0,0 l/m 0 min 0 min 70 W/m 16,1 km/h (3 Bft) 100,00 %
12.03.2023 16:56 11,5 C 11,1 C 7,2 C 80 % 1008,6 hPa 0,0 l/m 0 min 0 min 66 W/m 16,1 km/h (3 Bft) 95,74 %
12.03.2023 16:58 11,4 C 11,1 C 7,2 C 80 % 1008,5 hPa 0,0 l/m 0 min 0 min 60 W/m 22,5 km/h (4 Bft) 97,87 %
12.03.2023 17:00 11,4 C 11,1 C 7,2 C 79 % 1008,6 hPa 0,0 l/m 0 min 0 min 63 W/m 32,2 km/h (5 Bft) 100,00 %
12.03.2023 17:02 11,4 C 11,1 C 7,2 C 79 % 1008,5 hPa 0,0 l/m 0 min 0 min 65 W/m 12,9 km/h (3 Bft) 97,87 %
12.03.2023 17:04 11,4 C 11,1 C 7,2 C 80 % 1008,6 hPa 0,0 l/m 0 min 0 min 67 W/m 19,3 km/h (3 Bft) 97,62 %
12.03.2023 17:06 11,4 C 11,1 C 6,7 C 79 % 1008,6 hPa 0,0 l/m 0 min 0 min 75 W/m 22,5 km/h (4 Bft) 97,87 %
12.03.2023 17:08 11,4 C 11,1 C 7,2 C 79 % 1008,6 hPa 0,0 l/m 0 min 0 min 73 W/m 29,0 km/h (5 Bft) 97,87 %
12.03.2023 17:10 11,4 C 10,6 C 6,7 C 79 % 1008,5 hPa 0,0 l/m 0 min 0 min 67 W/m 54,7 km/h (7 Bft) 97,83 %
12.03.2023 17:12 11,4 C 10,6 C 6,7 C 79 % 1008,6 hPa 0,0 l/m 0 min 0 min 63 W/m 25,7 km/h (4 Bft) 97,87 %
12.03.2023 17:14 11,4 C 10,6 C 6,7 C 79 % 1008,6 hPa 0,0 l/m 0 min 0 min 61 W/m 19,3 km/h (3 Bft) 97,87 %
12.03.2023 17:16 11,3 C 10,6 C 6,7 C 79 % 1008,6 hPa 0,0 l/m 0 min 0 min 57 W/m 19,3 km/h (3 Bft) 97,87 %
12.03.2023 17:18 11,3 C 10,6 C 6,7 C 79 % 1008,6 hPa 0,0 l/m 0 min 0 min 62 W/m 19,3 km/h (3 Bft) 97,87 %
12.03.2023 17:20 11,3 C 10,6 C 6,7 C 79 % 1008,7 hPa 0,0 l/m 0 min 0 min 66 W/m 19,3 km/h (3 Bft) 97,87 %
12.03.2023 17:22 11,3 C 10,6 C 6,7 C 79 % 1008,6 hPa 0,0 l/m 0 min 0 min 55 W/m 22,5 km/h (4 Bft) 95,74 %
12.03.2023 17:24 11,3 C 10,6 C 6,7 C 78 % 1008,6 hPa 0,0 l/m 0 min 0 min 50 W/m 25,7 km/h (4 Bft) 97,87 %
12.03.2023 17:26 11,3 C 10,6 C 6,7 C 79 % 1008,7 hPa 0,0 l/m 0 min 0 min 46 W/m 16,1 km/h (3 Bft) 95,65 %
12.03.2023 17:28 11,2 C 10,6 C 6,7 C 79 % 1008,7 hPa 0,0 l/m 0 min 0 min 46 W/m 16,1 km/h (3 Bft) 95,74 %
12.03.2023 17:30 11,2 C 10,6 C 6,7 C 79 % 1008,6 hPa 0,0 l/m 0 min 0 min 46 W/m 19,3 km/h (3 Bft) 97,87 %
12.03.2023 17:32 11,2 C 10,6 C 6,7 C 79 % 1008,6 hPa 0,0 l/m 0 min 0 min 47 W/m 22,5 km/h (4 Bft) 97,87 %
12.03.2023 17:34 11,2 C 10,6 C 6,7 C 79 % 1008,6 hPa 0,0 l/m 0 min 0 min 47 W/m 25,7 km/h (4 Bft) 95,74 %
12.03.2023 17:36 11,2 C 10,6 C 6,7 C 79 % 1008,5 hPa 0,0 l/m 0 min 0 min 43 W/m 22,5 km/h (4 Bft) 97,14 %
12.03.2023 17:38 11,1 C 10,6 C 6,7 C 79 % 1008,6 hPa 0,0 l/m 0 min 0 min 39 W/m 19,3 km/h (3 Bft) 97,87 %
12.03.2023 17:40 11,1 C 10,0 C 6,7 C 79 % 1008,6 hPa 0,0 l/m 0 min 0 min 37 W/m 19,3 km/h (3 Bft) 97,87 %
12.03.2023 17:42 11,1 C 10,0 C 6,7 C 79 % 1008,7 hPa 0,0 l/m 0 min 0 min 37 W/m 22,5 km/h (4 Bft) 97,83 %
12.03.2023 17:44 11,1 C 10,0 C 6,7 C 79 % 1008,7 hPa 0,0 l/m 0 min 0 min 35 W/m 22,5 km/h (4 Bft) 96,61 %
12.03.2023 17:46 11,0 C 10,0 C 6,7 C 79 % 1008,7 hPa 0,0 l/m 0 min 0 min 32 W/m 12,9 km/h (3 Bft) 97,14 %
12.03.2023 17:48 11,0 C 10,0 C 6,7 C 79 % 1008,7 hPa 0,0 l/m 0 min 0 min 32 W/m 16,1 km/h (3 Bft) 95,74 %
12.03.2023 17:50 10,9 C 10,0 C 6,7 C 79 % 1008,6 hPa 0,0 l/m 0 min 0 min 33 W/m 12,9 km/h (3 Bft) 97,87 %
12.03.2023 17:52 10,9 C 10,0 C 6,1 C 80 % 1008,6 hPa 0,0 l/m 0 min 0 min 32 W/m 6,4 km/h (2 Bft) 97,87 %
12.03.2023 17:54 10,9 C 10,0 C 6,1 C 80 % 1008,5 hPa 0,0 l/m 0 min 0 min 30 W/m 22,5 km/h (4 Bft) 97,87 %
12.03.2023 17:56 10,9 C 10,0 C 6,1 C 80 % 1008,5 hPa 0,0 l/m 0 min 0 min 27 W/m 16,1 km/h (3 Bft) 97,83 %
12.03.2023 17:58 10,9 C 10,0 C 6,1 C 80 % 1008,5 hPa 0,0 l/m 0 min 0 min 25 W/m 12,9 km/h (3 Bft) 97,87 %
12.03.2023 18:00 10,8 C 10,0 C 6,1 C 80 % 1008,5 hPa 0,0 l/m 0 min 0 min 23 W/m 12,9 km/h (3 Bft) 97,87 %
12.03.2023 18:02 10,8 C 10,0 C 6,1 C 80 % 1008,5 hPa 0,0 l/m 0 min 0 min 21 W/m 9,7 km/h (2 Bft) 95,74 %
12.03.2023 18:04 10,8 C 10,0 C 6,1 C 80 % 1008,5 hPa 0,0 l/m 0 min 0 min 19 W/m 12,9 km/h (3 Bft) 97,87 %
12.03.2023 18:07 10,7 C 10,0 C 6,1 C 80 % 1008,5 hPa 0,0 l/m 0 min 0 min 17 W/m 19,3 km/h (3 Bft) 96,63 %
12.03.2023 18:08 10,7 C 10,0 C 6,1 C 80 % 1008,5 hPa 0,0 l/m 0 min 0 min 14 W/m 9,7 km/h (2 Bft) 100,00 %
12.03.2023 18:12 10,7 C 10,0 C 6,1 C 80 % 1008,6 hPa 0,0 l/m 0 min 0 min 12 W/m 16,1 km/h (3 Bft) 97,87 %
12.03.2023 18:14 10,7 C 10,0 C 6,1 C 81 % 1008,6 hPa 0,0 l/m 0 min 0 min 11 W/m 19,3 km/h (3 Bft) 97,87 %
12.03.2023 18:16 10,7 C 10,0 C 6,1 C 81 % 1008,6 hPa 0,0 l/m 0 min 0 min 10 W/m 12,9 km/h (3 Bft) 97,87 %
12.03.2023 18:18 10,7 C 10,0 C 6,1 C 81 % 1008,6 hPa 0,0 l/m 0 min 0 min 7 W/m 9,7 km/h (2 Bft) 97,87 %
12.03.2023 18:20 10,7 C 10,0 C 6,1 C 81 % 1008,5 hPa 0,0 l/m 0 min 0 min 6 W/m 16,1 km/h (3 Bft) 91,49 %
12.03.2023 18:22 10,7 C 10,0 C 6,1 C 81 % 1008,6 hPa 0,0 l/m 0 min 0 min 5 W/m 16,1 km/h (3 Bft) 97,83 %
12.03.2023 18:24 10,7 C 10,0 C 6,1 C 81 % 1008,6 hPa 0,0 l/m 0 min 0 min 1 W/m 19,3 km/h (3 Bft) 97,87 %
12.03.2023 18:26 10,7 C 10,0 C 6,1 C 81 % 1008,6 hPa 0,0 l/m 0 min 0 min 0 W/m 12,9 km/h (3 Bft) 97,87 %
12.03.2023 18:28 10,6 C 10,0 C 6,1 C 81 % 1008,6 hPa 0,0 l/m 0 min 0 min 0 W/m 16,1 km/h (3 Bft) 96,55 %
12.03.2023 18:30 10,6 C 10,0 C 6,1 C 81 % 1008,7 hPa 0,0 l/m 0 min 0 min 0 W/m 12,9 km/h (3 Bft) 97,92 %
12.03.2023 18:32 10,6 C 10,0 C 6,1 C 81 % 1008,7 hPa 0,0 l/m 0 min 0 min 0 W/m 16,1 km/h (3 Bft) 97,83 %
12.03.2023 18:34 10,6 C 9,4 C 6,1 C 80 % 1008,7 hPa 0,0 l/m 0 min 0 min 0 W/m 9,7 km/h (2 Bft) 95,74 %
12.03.2023 18:36 10,6 C 9,4 C 6,1 C 81 % 1008,7 hPa 0,0 l/m 0 min 0 min 0 W/m 12,9 km/h (3 Bft) 95,74 %
12.03.2023 18:38 10,6 C 9,4 C 5,6 C 81 % 1008,8 hPa 0,0 l/m 0 min 0 min 0 W/m 12,9 km/h (3 Bft) 97,87 %
12.03.2023 18:40 10,6 C 9,4 C 5,6 C 81 % 1008,8 hPa 0,0 l/m 0 min 0 min 0 W/m 12,9 km/h (3 Bft) 97,87 %
12.03.2023 18:42 10,5 C 9,4 C 5,6 C 81 % 1008,9 hPa 0,0 l/m 0 min 0 min 0 W/m 12,9 km/h (3 Bft) 97,87 %
12.03.2023 18:44 10,5 C 9,4 C 5,6 C 81 % 1008,9 hPa 0,0 l/m 0 min 0 min 0 W/m 16,1 km/h (3 Bft) 97,83 %
12.03.2023 18:46 10,5 C 9,4 C 5,6 C 81 % 1008,9 hPa 0,0 l/m 0 min 0 min 0 W/m 19,3 km/h (3 Bft) 97,87 %
12.03.2023 18:48 10,5 C 9,4 C 6,1 C 81 % 1008,9 hPa 0,0 l/m 0 min 0 min 0 W/m 16,1 km/h (3 Bft) 97,87 %
12.03.2023 18:50 10,5 C 9,4 C 5,6 C 81 % 1008,9 hPa 0,0 l/m 0 min 0 min 0 W/m 12,9 km/h (3 Bft) 97,14 %
12.03.2023 18:52 10,5 C 9,4 C 5,6 C 81 % 1008,9 hPa 0,0 l/m 0 min 0 min 0 W/m 19,3 km/h (3 Bft) 97,87 %
12.03.2023 18:54 10,4 C 9,4 C 5,6 C 81 % 1009,0 hPa 0,0 l/m 0 min 0 min 0 W/m 6,4 km/h (2 Bft) 96,36 %
12.03.2023 18:56 10,4 C 9,4 C 5,6 C 81 % 1008,9 hPa 0,0 l/m 0 min 0 min 0 W/m 12,9 km/h (3 Bft) 93,62 %
12.03.2023 18:58 10,4 C 9,4 C 5,6 C 81 % 1009,0 hPa 0,0 l/m 0 min 0 min 0 W/m 12,9 km/h (3 Bft) 97,87 %
12.03.2023 19:00 10,4 C 9,4 C 5,6 C 81 % 1008,9 hPa 0,0 l/m 0 min 0 min 0 W/m 19,3 km/h (3 Bft) 97,87 %
12.03.2023 19:02 10,4 C 9,4 C 5,6 C 81 % 1009,0 hPa 0,0 l/m 0 min 0 min 0 W/m 12,9 km/h (3 Bft) 95,74 %
12.03.2023 19:04 10,4 C 9,4 C 5,6 C 81 % 1009,0 hPa 0,0 l/m 0 min 0 min 0 W/m 12,9 km/h (3 Bft) 97,87 %
12.03.2023 19:06 10,4 C 9,4 C 5,6 C 82 % 1009,1 hPa 0,0 l/m 0 min 0 min 0 W/m 12,9 km/h (3 Bft) 98,28 %
12.03.2023 19:08 10,4 C 9,4 C 5,6 C 82 % 1009,1 hPa 0,0 l/m 0 min 0 min 0 W/m 12,9 km/h (3 Bft) 100,00 %
12.03.2023 19:10 10,4 C 9,4 C 5,6 C 82 % 1009,1 hPa 0,0 l/m 0 min 0 min 0 W/m 6,4 km/h (2 Bft) 100,00 %
12.03.2023 19:12 10,4 C 9,4 C 5,6 C 82 % 1009,0 hPa 0,0 l/m 0 min 0 min 0 W/m 19,3 km/h (3 Bft) 97,87 %
12.03.2023 19:14 10,4 C 9,4 C 5,6 C 82 % 1008,9 hPa 0,0 l/m 0 min 0 min 0 W/m 16,1 km/h (3 Bft) 100,00 %
12.03.2023 19:16 10,4 C 9,4 C 5,6 C 82 % 1009,0 hPa 0,0 l/m 0 min 0 min 0 W/m 16,1 km/h (3 Bft) 97,87 %
12.03.2023 19:18 10,4 C 9,4 C 5,6 C 82 % 1009,0 hPa 0,0 l/m 0 min 0 min 0 W/m 16,1 km/h (3 Bft) 100,00 %
12.03.2023 19:20 10,4 C 9,4 C 5,6 C 82 % 1008,9 hPa 0,0 l/m 0 min 0 min 0 W/m 19,3 km/h (3 Bft) 97,87 %
12.03.2023 19:22 10,4 C 9,4 C 5,6 C 82 % 1009,0 hPa 0,0 l/m 0 min 0 min 0 W/m 25,7 km/h (4 Bft) 100,00 %
12.03.2023 19:24 10,4 C 9,4 C 5,6 C 82 % 1009,0 hPa 0,0 l/m 0 min 0 min 0 W/m 22,5 km/h (4 Bft) 97,87 %
12.03.2023 19:26 10,5 C 10,0 C 6,1 C 82 % 1009,0 hPa 0,0 l/m 0 min 0 min 0 W/m 35,4 km/h (5 Bft) 100,00 %
12.03.2023 19:28 10,6 C 10,0 C 6,1 C 82 % 1009,0 hPa 0,0 l/m 0 min 0 min 0 W/m 16,1 km/h (3 Bft) 100,00 %
12.03.2023 19:30 10,6 C 10,0 C 6,1 C 82 % 1009,1 hPa 0,0 l/m 0 min 0 min 0 W/m 22,5 km/h (4 Bft) 100,00 %
12.03.2023 19:32 10,6 C 10,0 C 6,1 C 82 % 1009,3 hPa 0,0 l/m 0 min 0 min 0 W/m 16,1 km/h (3 Bft) 97,87 %
12.03.2023 19:34 10,6 C 10,0 C 6,1 C 82 % 1009,1 hPa 0,0 l/m 0 min 0 min 0 W/m 16,1 km/h (3 Bft) 95,65 %
12.03.2023 19:36 10,6 C 10,0 C 6,1 C 82 % 1009,1 hPa 0,0 l/m 0 min 0 min 0 W/m 25,7 km/h (4 Bft) 100,00 %
12.03.2023 19:38 10,6 C 10,0 C 6,1 C 82 % 1009,1 hPa 0,0 l/m 0 min 0 min 0 W/m 16,1 km/h (3 Bft) 97,87 %
12.03.2023 19:40 10,6 C 10,0 C 6,1 C 82 % 1009,1 hPa 0,0 l/m 0 min 0 min 0 W/m 12,9 km/h (3 Bft) 95,83 %
12.03.2023 19:42 10,6 C 10,0 C 6,1 C 82 % 1009,0 hPa 0,0 l/m 0 min 0 min 0 W/m 22,5 km/h (4 Bft) 93,62 %
12.03.2023 19:44 10,6 C 10,0 C 6,1 C 82 % 1009,1 hPa 0,0 l/m 0 min 0 min 0 W/m 19,3 km/h (3 Bft) 97,87 %
12.03.2023 19:46 10,7 C 10,0 C 6,1 C 82 % 1009,1 hPa 0,0 l/m 0 min 0 min 0 W/m 16,1 km/h (3 Bft) 95,74 %
12.03.2023 19:48 10,6 C 10,0 C 6,1 C 82 % 1009,2 hPa 0,0 l/m 0 min 0 min 0 W/m 9,7 km/h (2 Bft) 95,65 %
12.03.2023 19:50 10,6 C 10,0 C 6,1 C 82 % 1009,1 hPa 0,0 l/m 0 min 0 min 0 W/m 16,1 km/h (3 Bft) 93,75 %
12.03.2023 19:52 10,6 C 10,0 C 6,1 C 82 % 1009,0 hPa 0,0 l/m 0 min 0 min 0 W/m 12,9 km/h (3 Bft) 95,74 %
12.03.2023 19:54 10,6 C 9,4 C 6,1 C 82 % 1009,0 hPa 0,0 l/m 0 min 0 min 0 W/m 9,7 km/h (2 Bft) 95,74 %
12.03.2023 19:56 10,6 C 9,4 C 5,6 C 82 % 1009,0 hPa 0,0 l/m 0 min 0 min 0 W/m 16,1 km/h (3 Bft) 95,74 %
12.03.2023 19:58 10,6 C 9,4 C 5,6 C 82 % 1009,0 hPa 0,0 l/m 0 min 0 min 0 W/m 16,1 km/h (3 Bft) 95,74 %
12.03.2023 20:00 10,6 C 9,4 C 5,6 C 82 % 1009,0 hPa 0,0 l/m 0 min 0 min 0 W/m 19,3 km/h (3 Bft) 93,62 %
12.03.2023 20:02 10,6 C 9,4 C 5,6 C 82 % 1008,9 hPa 0,0 l/m 0 min 0 min 0 W/m 19,3 km/h (3 Bft) 93,48 %
12.03.2023 20:04 10,5 C 9,4 C 5,6 C 82 % 1008,9 hPa 0,0 l/m 0 min 0 min 0 W/m 9,7 km/h (2 Bft) 95,74 %
12.03.2023 20:06 10,5 C 9,4 C 5,6 C 82 % 1008,8 hPa 0,0 l/m 0 min 0 min 0 W/m 22,5 km/h (4 Bft) 93,62 %
12.03.2023 20:08 10,5 C 9,4 C 5,6 C 82 % 1008,9 hPa 0,0 l/m 0 min 0 min 0 W/m 19,3 km/h (3 Bft) 95,83 %
12.03.2023 20:10 10,5 C 9,4 C 5,6 C 82 % 1008,9 hPa 0,0 l/m 0 min 0 min 0 W/m 9,7 km/h (2 Bft) 93,75 %
12.03.2023 20:12 10,4 C 9,4 C 5,6 C 82 % 1008,9 hPa 0,0 l/m 0 min 0 min 0 W/m 19,3 km/h (3 Bft) 93,62 %
12.03.2023 20:14 10,5 C 9,4 C 5,6 C 82 % 1008,9 hPa 0,0 l/m 0 min 0 min 0 W/m 19,3 km/h (3 Bft) 95,65 %
12.03.2023 20:16 10,5 C 9,4 C 6,1 C 83 % 1008,9 hPa 0,0 l/m 0 min 0 min 0 W/m 19,3 km/h (3 Bft) 95,74 %
12.03.2023 20:18 10,5 C 9,4 C 5,6 C 83 % 1008,9 hPa 0,0 l/m 0 min 0 min 0 W/m 16,1 km/h (3 Bft) 94,59 %
12.03.2023 20:20 10,5 C 9,4 C 5,6 C 83 % 1008,9 hPa 0,0 l/m 0 min 0 min 0 W/m 22,5 km/h (4 Bft) 98,28 %
12.03.2023 20:22 10,5 C 9,4 C 6,1 C 83 % 1008,9 hPa 0,0 l/m 0 min 0 min 0 W/m 16,1 km/h (3 Bft) 97,87 %
12.03.2023 20:24 10,5 C 9,4 C 6,1 C 83 % 1008,9 hPa 0,0 l/m 0 min 0 min 0 W/m 25,7 km/h (4 Bft) 100,00 %
12.03.2023 20:26 10,5 C 9,4 C 5,6 C 83 % 1008,8 hPa 0,0 l/m 0 min 0 min 0 W/m 16,1 km/h (3 Bft) 100,00 %
12.03.2023 20:28 10,5 C 9,4 C 5,6 C 83 % 1008,8 hPa 0,0 l/m 0 min 0 min 0 W/m 16,1 km/h (3 Bft) 100,00 %
12.03.2023 20:30 10,5 C 9,4 C 5,6 C 83 % 1008,7 hPa 0,0 l/m 0 min 0 min 0 W/m 12,9 km/h (3 Bft) 100,00 %
12.03.2023 20:32 10,5 C 9,4 C 5,6 C 83 % 1008,7 hPa 0,0 l/m 0 min 0 min 0 W/m 19,3 km/h (3 Bft) 100,00 %
12.03.2023 20:34 10,5 C 9,4 C 5,6 C 83 % 1008,7 hPa 0,0 l/m 0 min 0 min 0 W/m 16,1 km/h (3 Bft) 100,00 %
12.03.2023 20:36 10,5 C 9,4 C 5,6 C 83 % 1008,7 hPa 0,0 l/m 0 min 0 min 0 W/m 16,1 km/h (3 Bft) 97,87 %
12.03.2023 20:38 10,5 C 9,4 C 5,6 C 83 % 1008,7 hPa 0,0 l/m 0 min 0 min 0 W/m 19,3 km/h (3 Bft) 100,00 %
12.03.2023 20:40 10,5 C 9,4 C 5,6 C 83 % 1008,7 hPa 0,0 l/m 0 min 0 min 0 W/m 9,7 km/h (2 Bft) 100,00 %
12.03.2023 20:42 10,5 C 9,4 C 5,6 C 83 % 1008,6 hPa 0,0 l/m 0 min 0 min 0 W/m 22,5 km/h (4 Bft) 95,65 %
12.03.2023 20:44 10,5 C 9,4 C 5,6 C 83 % 1008,6 hPa 0,0 l/m 0 min 0 min 0 W/m 19,3 km/h (3 Bft) 100,00 %
12.03.2023 20:46 10,5 C 9,4 C 5,6 C 83 % 1008,7 hPa 0,0 l/m 0 min 0 min 0 W/m 12,9 km/h (3 Bft) 100,00 %
12.03.2023 20:48 10,5 C 9,4 C 5,6 C 83 % 1008,6 hPa 0,0 l/m 0 min 0 min 0 W/m 16,1 km/h (3 Bft) 100,00 %
12.03.2023 20:50 10,5 C 9,4 C 5,6 C 83 % 1008,6 hPa 0,0 l/m 0 min 0 min 0 W/m 16,1 km/h (3 Bft) 100,00 %
12.03.2023 20:52 10,4 C 9,4 C 5,6 C 83 % 1008,6 hPa 0,0 l/m 0 min 0 min 0 W/m 22,5 km/h (4 Bft) 97,87 %
12.03.2023 20:54 10,4 C 9,4 C 5,6 C 83 % 1008,5 hPa 0,0 l/m 0 min 0 min 0 W/m 16,1 km/h (3 Bft) 97,87 %
12.03.2023 20:56 10,4 C 9,4 C 5,6 C 83 % 1008,6 hPa 0,0 l/m 0 min 0 min 0 W/m 19,3 km/h (3 Bft) 100,00 %
12.03.2023 20:58 10,4 C 9,4 C 5,6 C 83 % 1008,6 hPa 0,0 l/m 0 min 0 min 0 W/m 16,1 km/h (3 Bft) 100,00 %
12.03.2023 21:00 10,4 C 9,4 C 5,6 C 83 % 1008,6 hPa 0,0 l/m 0 min 0 min 0 W/m 16,1 km/h (3 Bft) 100,00 %
12.03.2023 21:02 10,3 C 9,4 C 5,6 C 84 % 1008,6 hPa 0,0 l/m 0 min 0 min 0 W/m 19,3 km/h (3 Bft) 100,00 %
12.03.2023 21:04 10,3 C 9,4 C 5,6 C 84 % 1008,5 hPa 0,0 l/m 0 min 0 min 0 W/m 12,9 km/h (3 Bft) 100,00 %
12.03.2023 21:06 10,3 C 9,4 C 5,6 C 84 % 1008,4 hPa 0,0 l/m 0 min 0 min 0 W/m 12,9 km/h (3 Bft) 98,31 %
12.03.2023 21:08 10,3 C 9,4 C 5,6 C 83 % 1008,4 hPa 0,0 l/m 0 min 0 min 0 W/m 12,9 km/h (3 Bft) 94,29 %
12.03.2023 21:10 10,3 C 9,4 C 5,6 C 84 % 1008,4 hPa 0,0 l/m 0 min 0 min 0 W/m 19,3 km/h (3 Bft) 95,74 %
12.03.2023 21:12 10,2 C 9,4 C 5,6 C 84 % 1008,4 hPa 0,0 l/m 0 min 0 min 0 W/m 12,9 km/h (3 Bft) 95,74 %
12.03.2023 21:14 10,2 C 9,4 C 5,6 C 84 % 1008,4 hPa 0,0 l/m 0 min 0 min 0 W/m 6,4 km/h (2 Bft) 96,23 %
12.03.2023 21:16 10,2 C 9,4 C 5,6 C 84 % 1008,4 hPa 0,0 l/m 0 min 0 min 0 W/m 19,3 km/h (3 Bft) 95,74 %
12.03.2023 21:18 10,1 C 8,9 C 5,6 C 84 % 1008,3 hPa 0,0 l/m 0 min 0 min 0 W/m 16,1 km/h (3 Bft) 97,87 %
12.03.2023 21:20 10,1 C 9,4 C 5,6 C 84 % 1008,4 hPa 0,0 l/m 0 min 0 min 0 W/m 12,9 km/h (3 Bft) 97,87 %
12.03.2023 21:22 10,1 C 9,4 C 5,6 C 84 % 1008,3 hPa 0,0 l/m 0 min 0 min 0 W/m 12,9 km/h (3 Bft) 97,87 %
12.03.2023 21:24 10,1 C 8,9 C 5,6 C 84 % 1008,3 hPa 0,0 l/m 0 min 0 min 0 W/m 12,9 km/h (3 Bft) 97,87 %
12.03.2023 21:26 10,1 C 9,4 C 5,6 C 84 % 1008,2 hPa 0,0 l/m 0 min 0 min 0 W/m 19,3 km/h (3 Bft) 95,65 %
12.03.2023 21:28 10,1 C 8,9 C 5,6 C 84 % 1008,2 hPa 0,0 l/m 0 min 0 min 0 W/m 9,7 km/h (2 Bft) 95,74 %
12.03.2023 21:30 10,1 C 8,9 C 5,0 C 84 % 1008,2 hPa 0,0 l/m 0 min 0 min 0 W/m 12,9 km/h (3 Bft) 98,08 %
12.03.2023 21:32 10,0 C 8,9 C 5,0 C 84 % 1008,1 hPa 0,0 l/m 0 min 0 min 0 W/m 12,9 km/h (3 Bft) 97,44 %
12.03.2023 21:34 10,0 C 8,9 C 5,0 C 84 % 1008,1 hPa 0,0 l/m 0 min 0 min 0 W/m 16,1 km/h (3 Bft) 97,87 %
12.03.2023 21:36 9,9 C 8,9 C 5,0 C 84 % 1008,1 hPa 0,0 l/m 0 min 0 min 0 W/m 16,1 km/h (3 Bft) 97,87 %
12.03.2023 21:38 9,9 C 8,9 C 5,0 C 84 % 1008,1 hPa 0,0 l/m 0 min 0 min 0 W/m 22,5 km/h (4 Bft) 97,87 %
12.03.2023 21:40 9,9 C 8,9 C 5,0 C 84 % 1008,1 hPa 0,0 l/m 0 min 0 min 0 W/m 19,3 km/h (3 Bft) 97,87 %
12.03.2023 21:42 9,9 C 8,9 C 5,0 C 84 % 1008,1 hPa 0,0 l/m 0 min 0 min 0 W/m 6,4 km/h (2 Bft) 97,87 %
12.03.2023 21:44 9,9 C 8,9 C 5,0 C 84 % 1008,1 hPa 0,0 l/m 0 min 0 min 0 W/m 12,9 km/h (3 Bft) 97,83 %
12.03.2023 21:46 9,9 C 8,9 C 5,0 C 84 % 1008,1 hPa 0,0 l/m 0 min 0 min 0 W/m 16,1 km/h (3 Bft) 93,62 %
12.03.2023 21:48 9,9 C 8,9 C 5,0 C 84 % 1008,0 hPa 0,0 l/m 0 min 0 min 0 W/m 9,7 km/h (2 Bft) 95,74 %
12.03.2023 21:50 9,9 C 8,9 C 5,6 C 84 % 1007,9 hPa 0,0 l/m 0 min 0 min 0 W/m 19,3 km/h (3 Bft) 95,74 %
12.03.2023 21:52 9,9 C 8,9 C 5,6 C 84 % 1007,9 hPa 0,0 l/m 0 min 0 min 0 W/m 19,3 km/h (3 Bft) 93,62 %
12.03.2023 21:54 9,9 C 8,9 C 5,6 C 84 % 1007,9 hPa 0,0 l/m 0 min 0 min 0 W/m 19,3 km/h (3 Bft) 46,15 %
12.03.2023 21:56 9,9 C 9,4 C 5,6 C 84 % 1007,9 hPa 0,0 l/m 0 min 0 min 0 W/m 19,3 km/h (3 Bft) 100,00 %
12.03.2023 21:58 9,9 C 9,4 C 5,6 C 84 % 1007,9 hPa 0,0 l/m 0 min 0 min 0 W/m 19,3 km/h (3 Bft) 93,62 %
12.03.2023 22:00 9,9 C 8,9 C 5,6 C 84 % 1007,8 hPa 0,0 l/m 0 min 0 min 0 W/m 19,3 km/h (3 Bft) 93,62 %
12.03.2023 22:02 9,9 C 8,9 C 5,6 C 84 % 1007,8 hPa 0,0 l/m 0 min 0 min 0 W/m 16,1 km/h (3 Bft) 95,74 %
12.03.2023 22:04 9,9 C 8,9 C 5,6 C 84 % 1007,8 hPa 0,0 l/m 0 min 0 min 0 W/m 9,7 km/h (2 Bft) 96,23 %
12.03.2023 22:06 9,9 C 8,9 C 5,6 C 84 % 1007,7 hPa 0,0 l/m 0 min 0 min 0 W/m 22,5 km/h (4 Bft) 97,87 %
12.03.2023 22:08 9,9 C 9,4 C 5,6 C 84 % 1007,7 hPa 0,0 l/m 0 min 0 min 0 W/m 25,7 km/h (4 Bft) 95,83 %
12.03.2023 22:10 9,9 C 9,4 C 5,6 C 83 % 1007,7 hPa 0,0 l/m 0 min 0 min 0 W/m 19,3 km/h (3 Bft) 95,74 %
12.03.2023 22:12 9,9 C 9,4 C 5,6 C 83 % 1007,7 hPa 0,0 l/m 0 min 0 min 0 W/m 16,1 km/h (3 Bft) 95,74 %
12.03.2023 22:14 9,9 C 8,9 C 5,6 C 83 % 1007,7 hPa 0,0 l/m 0 min 0 min 0 W/m 6,4 km/h (2 Bft) 93,62 %
12.03.2023 22:16 9,9 C 8,9 C 5,6 C 83 % 1007,6 hPa 0,0 l/m 0 min 0 min 0 W/m 12,9 km/h (3 Bft) 93,62 %
12.03.2023 22:18 9,9 C 8,9 C 5,6 C 83 % 1007,7 hPa 0,0 l/m 0 min 0 min 0 W/m 16,1 km/h (3 Bft) 94,59 %
12.03.2023 22:20 9,9 C 8,9 C 5,6 C 83 % 1007,6 hPa 0,0 l/m 0 min 0 min 0 W/m 16,1 km/h (3 Bft) 97,83 %
12.03.2023 22:22 9,9 C 9,4 C 5,6 C 83 % 1007,6 hPa 0,0 l/m 0 min 0 min 0 W/m 12,9 km/h (3 Bft) 91,49 %
12.03.2023 22:24 9,9 C 9,4 C 5,6 C 83 % 1007,5 hPa 0,0 l/m 0 min 0 min 0 W/m 16,1 km/h (3 Bft) 97,87 %
12.03.2023 22:26 9,9 C 9,4 C 5,6 C 83 % 1007,5 hPa 0,0 l/m 0 min 0 min 0 W/m 16,1 km/h (3 Bft) 97,87 %
12.03.2023 22:28 9,9 C 9,4 C 5,6 C 83 % 1007,5 hPa 0,0 l/m 0 min 0 min 0 W/m 16,1 km/h (3 Bft) 97,87 %
12.03.2023 22:30 9,9 C 9,4 C 5,6 C 83 % 1007,5 hPa 0,0 l/m 0 min 0 min 0 W/m 16,1 km/h (3 Bft) 95,74 %
12.03.2023 22:32 9,9 C 9,4 C 5,6 C 83 % 1007,4 hPa 0,0 l/m 0 min 0 min 0 W/m 19,3 km/h (3 Bft) 97,87 %
12.03.2023 22:34 9,9 C 9,4 C 5,6 C 83 % 1007,5 hPa 0,0 l/m 0 min 0 min 0 W/m 16,1 km/h (3 Bft) 97,96 %
12.03.2023 22:36 10,0 C 9,4 C 5,6 C 83 % 1007,4 hPa 0,0 l/m 0 min 0 min 0 W/m 25,7 km/h (4 Bft) 95,74 %
12.03.2023 22:38 10,0 C 9,4 C 5,6 C 83 % 1007,4 hPa 0,0 l/m 0 min 0 min 0 W/m 16,1 km/h (3 Bft) 95,65 %
12.03.2023 22:40 10,0 C 9,4 C 5,6 C 83 % 1007,4 hPa 0,0 l/m 0 min 0 min 0 W/m 22,5 km/h (4 Bft) 97,87 %
12.03.2023 22:42 10,1 C 9,4 C 5,6 C 83 % 1007,4 hPa 0,0 l/m 0 min 0 min 0 W/m 16,1 km/h (3 Bft) 97,87 %
12.03.2023 22:44 10,1 C 9,4 C 5,6 C 83 % 1007,4 hPa 0,0 l/m 0 min 0 min 0 W/m 16,1 km/h (3 Bft) 97,87 %
12.03.2023 22:46 10,1 C 9,4 C 5,6 C 83 % 1007,4 hPa 0,0 l/m 0 min 0 min 0 W/m 19,3 km/h (3 Bft) 95,74 %
12.03.2023 22:48 10,1 C 9,4 C 5,6 C 83 % 1007,4 hPa 0,0 l/m 0 min 0 min 0 W/m 16,1 km/h (3 Bft) 97,87 %
12.03.2023 22:50 10,1 C 9,4 C 5,6 C 83 % 1007,5 hPa 0,0 l/m 0 min 0 min 0 W/m 19,3 km/h (3 Bft) 97,83 %
12.03.2023 22:52 10,1 C 9,4 C 5,6 C 83 % 1007,3 hPa 0,0 l/m 0 min 0 min 0 W/m 22,5 km/h (4 Bft) 100,00 %
12.03.2023 22:54 10,2 C 9,4 C 5,6 C 83 % 1007,3 hPa 0,0 l/m 0 min 0 min 0 W/m 19,3 km/h (3 Bft) 100,00 %
12.03.2023 22:56 10,2 C 9,4 C 5,6 C 83 % 1007,3 hPa 0,0 l/m 0 min 0 min 0 W/m 25,7 km/h (4 Bft) 97,87 %
12.03.2023 22:58 10,2 C 9,4 C 5,6 C 83 % 1007,4 hPa 0,0 l/m 0 min 0 min 0 W/m 9,7 km/h (2 Bft) 100,00 %
12.03.2023 23:00 10,2 C 9,4 C 5,6 C 83 % 1007,3 hPa 0,0 l/m 0 min 0 min 0 W/m 25,7 km/h (4 Bft) 100,00 %
12.03.2023 23:02 10,3 C 9,4 C 5,6 C 83 % 1007,2 hPa 0,0 l/m 0 min 0 min 0 W/m 35,4 km/h (5 Bft) 97,87 %
12.03.2023 23:04 10,3 C 9,4 C 5,6 C 82 % 1007,3 hPa 0,0 l/m 0 min 0 min 0 W/m 16,1 km/h (3 Bft) 100,00 %
12.03.2023 23:06 10,3 C 9,4 C 5,6 C 82 % 1007,2 hPa 0,0 l/m 0 min 0 min 0 W/m 29,0 km/h (5 Bft) 100,00 %
12.03.2023 23:08 10,4 C 9,4 C 5,6 C 82 % 1007,2 hPa 0,0 l/m 0 min 0 min 0 W/m 22,5 km/h (4 Bft) 100,00 %
12.03.2023 23:10 10,4 C 10,0 C 6,1 C 82 % 1007,2 hPa 0,0 l/m 0 min 0 min 0 W/m 32,2 km/h (5 Bft) 100,00 %
12.03.2023 23:12 10,5 C 10,0 C 6,1 C 82 % 1007,1 hPa 0,0 l/m 0 min 0 min 0 W/m 25,7 km/h (4 Bft) 100,00 %
12.03.2023 23:14 10,5 C 10,0 C 6,1 C 82 % 1007,1 hPa 0,0 l/m 0 min 0 min 0 W/m 22,5 km/h (4 Bft) 100,00 %
12.03.2023 23:16 10,5 C 10,0 C 6,1 C 82 % 1007,0 hPa 0,0 l/m 0 min 0 min 0 W/m 35,4 km/h (5 Bft) 97,87 %
12.03.2023 23:18 10,6 C 10,0 C 6,1 C 82 % 1007,0 hPa 0,0 l/m 0 min 0 min 0 W/m 22,5 km/h (4 Bft) 100,00 %
12.03.2023 23:20 10,6 C 10,0 C 6,1 C 82 % 1006,9 hPa 0,0 l/m 0 min 0 min 0 W/m 19,3 km/h (3 Bft) 100,00 %
12.03.2023 23:22 10,6 C 10,0 C 6,1 C 82 % 1006,9 hPa 0,0 l/m 0 min 0 min 0 W/m 16,1 km/h (3 Bft) 100,00 %
12.03.2023 23:24 10,6 C 10,0 C 6,1 C 82 % 1007,0 hPa 0,0 l/m 0 min 0 min 0 W/m 19,3 km/h (3 Bft) 95,74 %
12.03.2023 23:26 10,6 C 10,0 C 6,1 C 82 % 1006,9 hPa 0,0 l/m 0 min 0 min 0 W/m 25,7 km/h (4 Bft) 100,00 %
12.03.2023 23:28 10,6 C 10,0 C 6,1 C 81 % 1006,8 hPa 0,0 l/m 0 min 0 min 0 W/m 25,7 km/h (4 Bft) 100,00 %
12.03.2023 23:30 10,6 C 10,0 C 6,1 C 81 % 1006,7 hPa 0,0 l/m 0 min 0 min 0 W/m 19,3 km/h (3 Bft) 100,00 %
12.03.2023 23:32 10,6 C 10,0 C 6,1 C 81 % 1006,7 hPa 0,0 l/m 0 min 0 min 0 W/m 32,2 km/h (5 Bft) 100,00 %
12.03.2023 23:34 10,6 C 10,0 C 6,1 C 81 % 1006,7 hPa 0,0 l/m 0 min 0 min 0 W/m 32,2 km/h (5 Bft) 98,15 %
12.03.2023 23:36 10,7 C 10,0 C 6,1 C 81 % 1006,6 hPa 0,0 l/m 0 min 0 min 0 W/m 35,4 km/h (5 Bft) 100,00 %
12.03.2023 23:38 10,7 C 10,0 C 6,1 C 81 % 1006,7 hPa 0,0 l/m 0 min 0 min 0 W/m 16,1 km/h (3 Bft) 100,00 %
12.03.2023 23:40 10,7 C 10,0 C 6,1 C 81 % 1006,6 hPa 0,0 l/m 0 min 0 min 0 W/m 25,7 km/h (4 Bft) 100,00 %
12.03.2023 23:42 10,7 C 10,0 C 6,1 C 81 % 1006,5 hPa 0,0 l/m 0 min 0 min 0 W/m 22,5 km/h (4 Bft) 95,74 %
12.03.2023 23:44 10,6 C 10,0 C 6,1 C 81 % 1006,5 hPa 0,0 l/m 0 min 0 min 0 W/m 19,3 km/h (3 Bft) 100,00 %
12.03.2023 23:46 10,6 C 10,0 C 6,1 C 81 % 1006,4 hPa 0,0 l/m 0 min 0 min 0 W/m 29,0 km/h (5 Bft) 95,74 %
12.03.2023 23:48 10,6 C 10,0 C 6,1 C 81 % 1006,3 hPa 0,0 l/m 0 min 0 min 0 W/m 19,3 km/h (3 Bft) 97,87 %
12.03.2023 23:50 10,6 C 10,0 C 6,1 C 81 % 1006,3 hPa 0,0 l/m 0 min 0 min 0 W/m 35,4 km/h (5 Bft) 97,87 %
12.03.2023 23:52 10,6 C 10,0 C 6,1 C 81 % 1006,2 hPa 0,0 l/m 0 min 0 min 0 W/m 19,3 km/h (3 Bft) 95,74 %
12.03.2023 23:54 10,6 C 10,0 C 6,1 C 81 % 1006,2 hPa 0,0 l/m 0 min 0 min 0 W/m 29,0 km/h (5 Bft) 95,74 %
12.03.2023 23:56 10,6 C 10,0 C 6,1 C 82 % 1006,2 hPa 0,0 l/m 0 min 0 min 0 W/m 29,0 km/h (5 Bft) 97,83 %
12.03.2023 23:58 10,6 C 10,0 C 6,1 C 81 % 1006,1 hPa 0,0 l/m 0 min 0 min 0 W/m 16,1 km/h (3 Bft) 95,92 %
_ Min-Zeit 02:50 00:00 00:32 00:00 23:58 - - - - 00:00 04:08
Minimum _ 1,6 C 1,1 C -2,2 C 78 % 1006,1 hPa - - - - 0,0 km/h (0 Bft) 31,82 %
_ Max-Zeit 16:04 13:42 16:20 12:38 00:00 09:44 13:38 12:07 13:42 17:10 00:00
Maximum _ 11,6 C 12,2 C 7,2 C 99 % 1012,8 hPa 0,2 l/m 2 min 3 min 420 W/m 54,7 km/h
S (7 Bft)
100,00 %
Durchschnitt _ 6,3 C 5,8 C 2,2 C 86 % 1009,4 hPa #1,4 l/m #18 min. #25 min. 91 W/m 14,4 km/h (3 Bft) 97,03 %
© 2023 W. Hausmann